Data for 07/30/2008

Time Sea-Level Adjusted Pressure Absolute Pressure Temperature Relative Humidity Dew Point Precipitation   
(mb) (inHg) (mb) (inHg) (C) (F) (%) (C) (F) (mm) (in)
00:01 1019 30.09 848 25.04 16.3 61.3 45 4.5 40.1 0
00:02 1019 30.09 848 25.04 16.2 61.2 45 4.5 40.1 0
00:03 1019 30.09 848 25.04 16.2 61.1 46 4.6 40.3 0
00:04 1019 30.09 848 25.04 16.1 61 46 4.5 40 0
00:05 1019 30.09 848 25.04 16.1 61 46 4.5 40.1 0
00:06 1019 30.09 848 25.04 16.2 61.1 45 4.4 39.9 0
00:07 1019 30.09 848 25.04 16.2 61.2 45 4.2 39.6 0
00:08 1019 30.09 848 25.04 16.3 61.3 44 4.1 39.4 0
00:09 1019 30.09 848 25.04 16.4 61.5 43 4.1 39.3 0
00:10 1019 30.09 848 25.04 16.5 61.7 42 3.7 38.6 0
00:11 1019 30.09 848 25.04 16.6 61.9 42 3.8 38.9 0
00:12 1019 30.09 848 25.04 16.7 62.1 42 3.9 39 0
00:13 1019 30.09 848 25.04 16.8 62.2 42 3.8 38.9 0
00:14 1019 30.09 848 25.04 16.9 62.3 42 4 39.2 0
00:15 1019 30.09 848 25.04 16.8 62.3 43 4.1 39.4 0
00:16 1019 30.09 848 25.04 16.8 62.2 44 4.4 40 0
00:17 1019 30.09 848 25.04 16.6 61.9 44 4.4 39.8 0
00:18 1019 30.09 848 25.04 16.5 61.6 44 4.3 39.7 0
00:19 1019 30.09 848 25.04 16.3 61.4 44 4.2 39.5 0
00:20 1019 30.09 848 25.04 16.3 61.3 44 4.1 39.4 0
00:21 1019 30.09 848 25.04 16.3 61.3 44 4.1 39.3 0
00:22 1019 30.09 848 25.04 16.3 61.3 44 4.2 39.6 0
00:23 1019 30.09 848 25.04 16.3 61.3 45 4.3 39.7 0
00:24 1019 30.09 848 25.04 16.2 61.1 45 4.2 39.6 0
00:25 1019 30.09 848 25.04 16.1 61 45 4.1 39.4 0
00:26 1019 30.09 848 25.04 16 60.9 44 3.8 38.8 0
00:27 1019 30.09 848 25.04 16.1 60.9 44 3.9 39 0
00:28 1019 30.09 848 25.04 16.1 61 44 3.9 39 0
00:29 1019 30.09 848 25.04 16.1 61.1 44 4 39.2 0
00:30 1019 30.09 848 25.04 16.1 60.9 49 5.3 41.6 0
00:31 1019 30.09 848 25.04 15.7 60.3 48 4.7 40.5 0
00:32 1019 30.09 848 25.04 15.6 60.1 47 4.5 40.1 0
00:33 1019 30.09 848 25.04 15.6 60 46 4.1 39.4 0
00:34 1019 30.09 848 25.04 15.6 60.1 45 3.9 39 0
00:35 1019 30.09 848 25.04 15.7 60.3 46 4.2 39.5 0
00:36 1019 30.09 848 25.04 15.7 60.3 46 4.1 39.4 0
00:37 1019 30.09 848 25.04 15.7 60.2 47 4.4 40 0
00:38 1019 30.09 848 25.04 15.5 59.9 48 4.5 40.2 0
00:39 1019 30.09 848 25.04 15.3 59.6 48 4.5 40.2 0
00:40 1019 30.09 848 25.04 15.2 59.4 48 4.3 39.7 0
00:41 1019 30.09 848 25.04 15.2 59.4 48 4.4 39.9 0
00:42 1019 30.09 848 25.04 15.3 59.5 47 4.1 39.3 0
00:43 1019 30.09 848 25.04 15.3 59.6 46 3.8 38.8 0
00:44 1018 30.06 848 25.04 15.5 59.8 46 3.9 39.1 0
00:45 1018 30.06 848 25.04 15.5 59.8 48 4.5 40.1 0
00:46 1018 30.06 848 25.04 15.3 59.6 49 4.6 40.3 0
00:47 1018 30.06 848 25.04 15.1 59.3 48 4.4 39.9 0
00:48 1018 30.06 848 25.04 15.1 59.1 45 3.2 37.8 0
00:49 1018 30.06 848 25.04 15.5 59.9 43 3 37.5 0
00:50 1018 30.06 848 25.04 16.1 61 40 2.7 36.9 0
00:51 1018 30.06 848 25.04 16.6 61.9 40 3 37.4 0
00:52 1018 30.06 848 25.04 17 62.5 38 2.7 36.8 0
00:53 1018 30.06 848 25.04 17.2 63 37 2.6 36.6 0
00:54 1018 30.06 848 25.04 17.4 63.4 38 2.9 37.3 0
00:55 1018 30.06 848 25.04 17.6 63.6 37 2.8 37 0
00:56 1018 30.06 848 25.04 17.6 63.7 37 3 37.4 0
00:57 1018 30.06 848 25.04 17.6 63.7 37 2.8 37.1 0
00:58 1018 30.06 848 25.04 17.7 63.8 37 3.1 37.5 0
00:59 1018 30.06 848 25.04 17.7 63.8 36 2.7 36.8 0
01:00 1018 30.06 848 25.04 17.7 63.9 36 2.7 36.8 0
01:01 1018 30.06 848 25.04 17.7 63.9 37 2.9 37.3 0
01:02 1018 30.06 848 25.04 17.7 63.8 38 3.2 37.7 0
01:03 1018 30.06 848 25.04 17.7 63.8 37 2.9 37.2 0
01:04 1018 30.06 848 25.04 17.6 63.7 37 2.9 37.3 0
01:05 1018 30.06 848 25.04 17.6 63.7 39 3.5 38.3 0
01:06 1018 30.06 848 25.04 17.5 63.6 38 3.3 38 0
01:07 1018 30.06 848 25.04 17.6 63.6 38 3.1 37.5 0
01:08 1018 30.06 848 25.04 17.6 63.7 37 2.9 37.2 0
01:09 1018 30.06 848 25.04 17.7 63.8 37 2.8 37 0
01:10 1018 30.06 848 25.04 17.7 63.9 37 2.9 37.2 0
01:11 1018 30.06 848 25.04 17.7 63.9 38 3.3 37.9 0
01:12 1018 30.06 848 25.04 17.7 63.8 38 3.5 38.3 0
01:13 1018 30.06 848 25.04 17.6 63.6 39 3.5 38.2 0
01:14 1018 30.06 848 25.04 17.5 63.5 39 3.4 38.1 0
01:15 1018 30.06 848 25.04 17.4 63.4 40 3.9 39.1 0
01:16 1018 30.06 848 25.04 17.3 63.1 41 4 39.3 0
01:17 1018 30.06 848 25.04 17.2 62.9 42 4.1 39.4 0
01:18 1018 30.06 848 25.04 17.1 62.7 44 4.7 40.5 0
01:19 1018 30.06 848 25.04 16.8 62.3 45 5 41 0
01:20 1018 30.06 848 25.04 16.6 61.8 46 5 41.1 0
01:21 1018 30.06 848 25.04 16.4 61.5 47 5.2 41.4 0
01:22 1018 30.06 848 25.04 16.2 61.2 47 4.9 40.9 0
01:23 1018 30.06 848 25.04 16.1 61 47 4.9 40.8 0
01:24 1018 30.06 848 25.04 16 60.8 47 4.7 40.4 0
01:25 1018 30.06 848 25.04 16 60.9 47 4.8 40.7 0
01:26 1018 30.06 848 25.04 16.1 61 45 4.1 39.4 0
01:27 1018 30.06 848 25.04 16.2 61.1 45 4.4 39.9 0
01:28 1018 30.06 848 25.04 16.2 61.2 46 4.7 40.5 0
01:29 1018 30.06 848 25.04 16.1 61 51 6 42.8 0
01:30 1018 30.06 848 25.04 15.8 60.4 52 6.1 43 0
01:31 1018 30.06 848 25.04 15.5 59.8 54 6.4 43.4 0
01:32 1018 30.06 848 25.04 15.2 59.3 56 6.5 43.7 0
01:33 1018 30.06 848 25.04 14.9 58.8 55 5.9 42.6 0
01:34 1018 30.06 848 25.04 14.8 58.6 55 6 42.9 0
01:35 1018 30.06 848 25.04 14.7 58.5 57 6.4 43.5 0
01:36 1018 30.06 847 25.01 14.6 58.3 55 5.6 42.1 0
01:37 1018 30.06 847 25.01 14.7 58.4 54 5.5 41.9 0
01:38 1018 30.06 847 25.01 14.8 58.6 53 5.3 41.6 0
01:39 1018 30.06 847 25.01 14.8 58.7 54 5.7 42.2 0
01:40 1018 30.06 847 25.01 14.7 58.5 56 6 42.8 0
01:41 1018 30.06 847 25.01 14.6 58.2 57 6.1 43 0
01:42 1018 30.06 847 25.01 14.5 58 57 6 42.9 0
01:43 1018 30.06 847 25.01 14.4 57.9 56 5.9 42.6 0
01:44 1018 30.06 847 25.01 14.4 57.9 55 5.7 42.2 0
01:45 1018 30.06 847 25.01 14.4 58 56 5.9 42.6 0
01:46 1018 30.06 847 25.01 14.4 57.8 58 6.4 43.4 0
01:47 1018 30.06 847 25.01 14.2 57.6 59 6.3 43.4 0
01:48 1018 30.06 847 25.01 14.1 57.4 59 6.2 43.2 0
01:49 1018 30.06 847 25.01 14 57.2 60 6.3 43.4 0
01:50 1018 30.06 847 25.01 13.9 57 60 6.3 43.4 0
01:51 1018 30.06 847 25.01 13.7 56.7 60 6.1 43.1 0
01:52 1018 30.06 847 25.01 13.7 56.6 61 6.4 43.5 0
01:53 1018 30.06 847 25.01 13.6 56.5 60 6.1 42.9 0
01:54 1018 30.06 847 25.01 13.6 56.5 60 6 42.7 0
01:55 1018 30.06 847 25.01 13.7 56.6 60 6 42.8 0
01:56 1018 30.06 847 25.01 13.7 56.6 60 6.1 43 0
01:57 1018 30.06 847 25.01 13.7 56.6 61 6.3 43.4 0
01:58 1018 30.06 847 25.01 13.6 56.5 61 6.3 43.3 0
01:59 1018 30.06 847 25.01 13.6 56.4 61 6.3 43.3 0
02:00 1018 30.06 847 25.01 13.5 56.3 62 6.5 43.8 0
02:01 1018 30.06 847 25.01 13.4 56.2 62 6.3 43.3 0
02:02 1018 30.06 847 25.01 13.4 56 63 6.4 43.5 0
02:03 1018 30.06 847 25.01 13.3 55.9 64 6.8 44.2 0
02:04 1018 30.06 847 25.01 13.2 55.7 65 6.7 44.1 0
02:05 1018 30.06 847 25.01 13.1 55.5 65 6.8 44.2 0
02:06 1018 30.06 847 25.01 13 55.5 63 6.3 43.3 0
02:07 1018 30.06 847 25.01 13.2 55.8 61 6 42.8 0
02:08 1018 30.06 847 25.01 13.4 56 61 6.1 42.9 0
02:09 1018 30.06 847 25.01 13.4 56.1 63 6.5 43.6 0
02:10 1018 30.06 847 25.01 13.4 56.1 62 6.3 43.3 0
02:11 1018 30.06 847 25.01 13.5 56.2 59 5.6 42.2 0
02:12 1018 30.06 847 25.01 13.7 56.6 59 5.8 42.4 0
02:13 1018 30.06 847 25.01 13.8 56.8 62 6.6 43.8 0
02:14 1018 30.06 847 25.01 13.7 56.6 60 6.1 43 0
02:15 1018 30.06 847 25.01 13.6 56.5 61 6.2 43.1 0
02:16 1018 30.06 847 25.01 13.6 56.5 60 6.1 42.9 0
02:17 1018 30.06 847 25.01 13.6 56.5 60 6.1 43 0
02:18 1018 30.06 847 25.01 13.6 56.5 59 5.9 42.6 0
02:19 1018 30.06 847 25.01 13.8 56.8 53 4.5 40 0
02:20 1018 30.06 847 25.01 14.1 57.5 50 3.8 38.9 0
02:21 1018 30.06 847 25.01 14.5 58.1 52 4.8 40.6 0
02:22 1018 30.06 847 25.01 14.7 58.5 49 4.2 39.5 0
02:23 1018 30.06 847 25.01 15 59 47 3.9 39.1 0
02:24 1018 30.06 847 25.01 15.3 59.5 49 4.8 40.6 0
02:25 1018 30.06 847 25.01 15.2 59.4 50 5 41 0
02:26 1018 30.06 847 25.01 15.1 59.2 52 5.5 41.9 0
02:27 1018 30.06 847 25.01 14.9 58.8 47 3.9 39 0
02:28 1018 30.06 847 25.01 14.8 58.7 50 4.5 40.1 0
02:29 1018 30.06 847 25.01 14.8 58.6 50 4.4 40 0
02:30 1018 30.06 847 25.01 14.9 58.8 52 5.3 41.6 0
02:31 1018 30.06 847 25.01 14.8 58.6 52 5.1 41.1 0
02:32 1018 30.06 847 25.01 14.6 58.2 52 4.9 40.8 0
02:33 1018 30.06 847 25.01 14.5 58.1 54 5.3 41.6 0
02:34 1018 30.06 847 25.01 14.5 58 54 5.5 41.8 0
02:35 1018 30.06 847 25.01 14.3 57.7 57 5.8 42.5 0
02:36 1018 30.06 847 25.01 14.1 57.3 52 4.5 40.1 0
02:37 1018 30.06 847 25.01 14.1 57.3 56 5.6 42 0
02:38 1018 30.06 847 25.01 14 57.3 59 6.2 43.2 0
02:39 1018 30.06 847 25.01 13.9 56.9 59 6 42.7 0
02:40 1018 30.06 847 25.01 13.7 56.6 59 5.8 42.5 0
02:41 1018 30.06 847 25.01 13.6 56.5 54 4.6 40.2 0
02:42 1018 30.06 847 25.01 13.7 56.7 54 4.6 40.2 0
02:43 1018 30.06 847 25.01 13.9 56.9 56 5.2 41.4 0
02:44 1018 30.06 847 25.01 13.8 56.8 56 5.3 41.5 0
02:45 1018 30.06 847 25.01 13.8 56.8 51 3.9 39.1 0
02:46 1018 30.06 847 25.01 14.1 57.4 50 4 39.1 0
02:47 1018 30.06 847 25.01 14.4 57.9 56 5.8 42.4 0
02:48 1018 30.06 847 25.01 14.3 57.7 53 4.9 40.9 0
02:49 1018 30.06 847 25.01 14.2 57.5 52 4.4 40 0
02:50 1018 30.06 847 25.01 14.3 57.7 54 5.3 41.5 0
02:51 1018 30.06 847 25.01 14.4 57.9 53 5.1 41.1 0
02:52 1018 30.06 847 25.01 14.4 57.8 51 4.5 40.1 0
02:53 1018 30.06 847 25.01 14.5 58 46 3.2 37.8 0
02:54 1018 30.06 847 25.01 14.7 58.5 45 3 37.3 0
02:55 1018 30.06 847 25.01 15 59.1 47 3.8 38.8 0
02:56 1018 30.06 847 25.01 15.2 59.3 46 3.9 39 0
02:57 1017 30.03 847 25.01 15.2 59.4 43 2.9 37.2 0
02:58 1017 30.03 847 25.01 15.4 59.7 45 3.6 38.6 0
02:59 1017 30.03 847 25.01 15.6 60.1 42 2.9 37.3 0
03:00 1017 30.03 847 25.01 15.8 60.4 38 1.8 35.2 0
03:01 1017 30.03 847 25.01 16.2 61.1 42 3.5 38.2 0
03:02 1017 30.03 847 25.01 16.2 61.2 40 2.8 37 0
03:03 1017 30.03 847 25.01 16.2 61.2 39 2.4 36.3 0
03:04 1017 30.03 847 25.01 16.3 61.4 43 3.7 38.6 0
03:05 1017 30.03 847 25.01 16.2 61.1 42 3.2 37.8 0
03:06 1017 30.03 847 25.01 16.1 61 39 2.2 36 0
03:07 1017 30.03 847 25.01 16.2 61.1 38 1.9 35.4 0
03:08 1017 30.03 847 25.01 16.3 61.4 37 1.9 35.4 0
03:09 1017 30.03 847 25.01 16.7 62.1 36 1.7 35.1 0
03:10 1017 30.03 847 25.01 17 62.5 40 3.3 37.9 0
03:11 1017 30.03 847 25.01 16.9 62.4 39 2.8 37.1 0
03:12 1017 30.03 847 25.01 16.7 62 40 3.2 37.7 0
03:13 1017 30.03 847 25.01 16.5 61.8 41 3.2 37.8 0
03:14 1017 30.03 846 24.98 16.5 61.6 38 2.1 35.8 0
03:15 1017 30.03 846 24.98 16.5 61.7 39 2.5 36.5 0
03:16 1017 30.03 846 24.98 16.6 61.9 41 3.3 38 0
03:17 1017 30.03 846 24.98 16.5 61.7 40 3 37.4 0
03:18 1017 30.03 846 24.98 16.4 61.4 42 3.4 38.2 0
03:19 1017 30.03 846 24.98 16.2 61.1 42 3.5 38.3 0
03:20 1017 30.03 846 24.98 16 60.8 42 3.1 37.5 0
03:21 1017 30.03 846 24.98 15.9 60.6 40 2.6 36.6 0
03:22 1017 30.03 846 24.98 15.8 60.4 42 3 37.4 0
03:23 1017 30.03 846 24.98 15.6 60.1 44 3.5 38.3 0
03:24 1017 30.03 846 24.98 15.6 60.1 41 2.6 36.8 0
03:25 1017 30.03 846 24.98 15.6 60 47 4.3 39.8 0
03:26 1017 30.03 846 24.98 15.2 59.4 47 3.9 39.1 0
03:27 1017 30.03 846 24.98 15.1 59.2 45 3.2 37.8 0
03:28 1017 30.03 846 24.98 15.1 59.1 46 3.8 38.8 0
03:29 1017 30.03 846 24.98 14.8 58.7 47 3.7 38.7 0
03:30 1017 30.03 846 24.98 14.8 58.6 46 3.3 37.9 0
03:31 1017 30.03 846 24.98 14.9 58.8 45 3.2 37.7 0
03:32 1017 30.03 846 24.98 15 59 45 3.4 38.1 0
03:33 1017 30.03 846 24.98 15 58.9 47 3.7 38.7 0
03:34 1017 30.03 846 24.98 14.9 58.8 46 3.4 38.1 0
03:35 1017 30.03 846 24.98 14.9 58.9 44 3 37.4 0
03:36 1017 30.03 846 24.98 15.1 59.1 44 3.2 37.7 0
03:37 1017 30.03 846 24.98 15.1 59.1 44 3.1 37.6 0
03:38 1017 30.03 846 24.98 15.1 59.2 44 3.1 37.6 0
03:39 1017 30.03 846 24.98 15.1 59.1 45 3.4 38.1 0
03:40 1017 30.03 846 24.98 15 59.1 45 3.2 37.8 0
03:41 1017 30.03 846 24.98 15 59 46 3.5 38.2 0
03:42 1017 30.03 846 24.98 14.9 58.9 49 4.5 40 0
03:43 1017 30.03 846 24.98 14.7 58.5 50 4.5 40 0
03:44 1017 30.03 846 24.98 14.3 57.8 50 4.2 39.6 0
03:45 1017 30.03 846 24.98 14.2 57.5 48 3.5 38.3 0
03:46 1017 30.03 846 24.98 14.2 57.5 47 3 37.4 0
03:47 1017 30.03 846 24.98 14.4 57.8 46 2.9 37.3 0
03:48 1017 30.03 846 24.98 14.5 58.2 46 3 37.4 0
03:49 1017 30.03 846 24.98 14.7 58.4 45 3.1 37.5 0
03:50 1017 30.03 846 24.98 14.7 58.4 45 3.1 37.6 0
03:51 1017 30.03 846 24.98 14.7 58.5 46 3.2 37.8 0
03:52 1017 30.03 846 24.98 14.7 58.4 45 3.1 37.6 0
03:53 1017 30.03 846 24.98 14.6 58.3 46 3.1 37.7 0
03:54 1017 30.03 846 24.98 14.6 58.3 45 3 37.4 0
03:55 1017 30.03 846 24.98 14.6 58.2 46 3.2 37.7 0
03:56 1017 30.03 846 24.98 14.6 58.2 47 3.5 38.3 0
03:57 1017 30.03 846 24.98 14.5 58 46 3.1 37.7 0
03:58 1017 30.03 846 24.98 14.4 57.9 48 3.5 38.3 0
03:59 1017 30.03 846 24.98 14.3 57.7 46 2.9 37.2 0
04:00 1017 30.03 846 24.98 14.4 57.8 46 2.9 37.2 0
04:01 1017 30.03 846 24.98 14.4 57.8 50 4.1 39.4 0
04:02 1017 30.03 846 24.98 13.8 56.9 53 4.4 39.9 0
04:03 1017 30.03 846 24.98 13.2 55.8 55 4.4 39.9 0
04:04 1017 30.03 846 24.98 12.9 55.2 53 3.7 38.7 0
04:05 1017 30.03 846 24.98 12.8 55 54 3.7 38.7 0
04:06 1017 30.03 846 24.98 12.6 54.7 56 4.1 39.4 0
04:07 1017 30.03 846 24.98 12.5 54.6 55 3.7 38.7 0
04:08 1017 30.03 846 24.98 12.5 54.5 54 3.5 38.4 0
04:09 1017 30.03 846 24.98 12.5 54.5 52 2.9 37.3 0
04:10 1017 30.03 846 24.98 12.9 55.3 47 2 35.6 0
04:11 1017 30.03 846 24.98 13.4 56.2 44 1.6 34.9 0
04:12 1017 30.03 846 24.98 14 57.1 40 0.5 32.9 0
04:13 1017 30.03 846 24.98 14.7 58.4 43 2.2 36 0
04:14 1017 30.03 846 24.98 14.7 58.4 44 2.6 36.6 0
04:15 1017 30.03 846 24.98 14.7 58.5 39 1 33.8 0
04:16 1017 30.03 846 24.98 15 59 36 0.2 32.4 0
04:17 1017 30.03 846 24.98 15.4 59.8 35 0.1 32.1 0
04:18 1017 30.03 846 24.98 15.9 60.7 34 0.1 32.2 0
04:19 1017 30.03 846 24.98 16.4 61.4 35 0.8 33.4 0
04:20 1017 30.03 846 24.98 16.5 61.8 34 0.7 33.2 0
04:21 1017 30.03 846 24.98 16.7 62 36 1.6 34.8 0
04:22 1017 30.03 846 24.98 16.2 61.1 43 3.8 38.8 0
04:23 1017 30.03 846 24.98 15.3 59.5 44 3.1 37.6 0
04:24 1017 30.03 846 24.98 14.8 58.7 42 2.1 35.8 0
04:25 1017 30.03 846 24.98 14.7 58.5 45 3.1 37.5 0
04:26 1017 30.03 846 24.98 14.7 58.4 43 2.2 35.9 0
04:27 1017 30.03 846 24.98 14.6 58.3 43 2.1 35.8 0
04:28 1017 30.03 846 24.98 14.7 58.5 40 1.5 34.7 0
04:29 1017 30.03 846 24.98 14.9 58.8 40 1.4 34.5 0
04:30 1017 30.03 846 24.98 15.1 59.2 42 2.5 36.5 0
04:31 1017 30.03 846 24.98 15 59.1 41 2 35.5 0
04:32 1017 30.03 846 24.98 15 59 40 1.7 35.1 0
04:33 1017 30.03 846 24.98 15.1 59.1 40 1.6 34.8 0
04:34 1017 30.03 846 24.98 15.2 59.3 40 1.6 34.9 0
04:35 1017 30.03 846 24.98 15.3 59.5 39 1.4 34.5 0
04:36 1017 30.03 846 24.98 15.3 59.6 39 1.5 34.7 0
04:37 1017 30.03 846 24.98 15.4 59.7 38 1.2 34.2 0
04:38 1017 30.03 846 24.98 15.5 59.9 38 1.2 34.2 0
04:39 1017 30.03 846 24.98 15.2 59.4 44 3 37.5 0
04:40 1017 30.03 846 24.98 14.8 58.7 41 1.7 35 0
04:41 1017 30.03 846 24.98 14.9 58.9 39 1.2 34.2 0
04:42 1017 30.03 846 24.98 15.2 59.4 38 1 33.8 0
04:43 1017 30.03 846 24.98 15.3 59.5 46 3.9 39 0
04:44 1017 30.03 846 24.98 15 59 41 1.9 35.4 0
04:45 1017 30.03 846 24.98 14.7 58.5 41 1.6 34.8 0
04:46 1017 30.03 846 24.98 14.7 58.5 43 2.2 36 0
04:47 1017 30.03 846 24.98 14.6 58.3 40 1.4 34.5 0
04:48 1017 30.03 846 24.98 14.7 58.4 43 2.4 36.4 0
04:49 1017 30.03 846 24.98 14.8 58.7 39 1.2 34.1 0
04:50 1017 30.03 846 24.98 14.9 58.8 40 1.5 34.6 0
04:51 1017 30.03 846 24.98 15 59 40 1.7 35.1 0
04:52 1017 30.03 846 24.98 15 58.9 40 1.7 35 0
04:53 1017 30.03 846 24.98 15 58.9 42 2.3 36.2 0
04:54 1017 30.03 846 24.98 14.8 58.6 45 3.2 37.7 0
04:55 1017 30.03 846 24.98 14.2 57.6 44 2.3 36.1 0
04:56 1017 30.03 846 24.98 13.7 56.7 50 3.6 38.6 0
04:57 1017 30.03 846 24.98 13.2 55.8 49 2.9 37.2 0
04:58 1017 30.03 846 24.98 13.1 55.7 50 3 37.5 0
04:59 1017 30.03 846 24.98 13.2 55.7 47 2.2 36 0
05:00 1017 30.03 846 24.98 13.4 56 48 2.5 36.6 0
05:01 1017 30.03 846 24.98 13.4 56.1 50 3.4 38.1 0
05:02 1017 30.03 846 24.98 13 55.4 53 3.7 38.7 0
05:03 1017 30.03 846 24.98 12.4 54.3 57 4.2 39.5 0
05:04 1017 30.03 846 24.98 11.7 53.1 59 4 39.3 0
05:05 1017 30.03 846 24.98 11.2 52.2 60 3.9 39 0
05:06 1017 30.03 846 24.98 10.9 51.6 62 4 39.2 0
05:07 1017 30.03 846 24.98 10.7 51.3 63 4 39.2 0
05:08 1017 30.03 846 24.98 10.6 51 63 3.8 38.8 0
05:09 1017 30.03 846 24.98 10.6 51.1 63 3.8 38.8 0
05:10 1017 30.03 846 24.98 10.6 51 63 4 39.1 0
05:11 1017 30.03 846 24.98 10.4 50.8 63 3.8 38.9 0
05:12 1017 30.03 846 24.98 10.4 50.7 63 3.7 38.7 0
05:13 1017 30.03 846 24.98 10.5 50.8 62 3.5 38.2 0
05:14 1017 30.03 846 24.98 10.6 51.1 61 3.4 38.2 0
05:15 1017 30.03 846 24.98 10.7 51.2 60 3.3 38 0
05:16 1017 30.03 846 24.98 10.8 51.4 63 4.1 39.4 0
05:17 1017 30.03 846 24.98 10.6 51.1 64 4.1 39.4 0
05:18 1017 30.03 846 24.98 10.4 50.6 66 4.2 39.6 0
05:19 1017 30.03 846 24.98 10.3 50.5 62 3.3 38 0
05:20 1017 30.03 846 24.98 10.5 50.9 65 4.2 39.6 0
05:21 1017 30.03 846 24.98 10.4 50.8 65 4.2 39.5 0
05:22 1017 30.03 846 24.98 10.5 50.8 58 2.6 36.7 0
05:23 1017 30.03 846 24.98 11.1 52 55 2.5 36.6 0
05:24 1017 30.03 846 24.98 11.7 53.1 54 2.7 36.9 0
05:25 1017 30.03 846 24.98 12.3 54.1 53 3.1 37.5 0
05:26 1017 30.03 846 24.98 12.6 54.7 53 3.3 38 0
05:27 1017 30.03 846 24.98 12.7 54.8 52 3.1 37.6 0
05:28 1017 30.03 846 24.98 12.8 55 48 2 35.7 0
05:29 1017 30.03 846 24.98 13 55.4 50 2.8 37.1 0
05:30 1017 30.03 846 24.98 13.2 55.7 49 2.7 36.9 0
05:31 1017 30.03 846 24.98 13.2 55.8 50 3 37.5 0
05:32 1017 30.03 846 24.98 13.2 55.8 48 2.6 36.7 0
05:33 1017 30.03 846 24.98 13.3 55.9 50 3.1 37.7 0
05:34 1017 30.03 846 24.98 13.2 55.8 49 2.8 37.1 0
05:35 1017 30.03 846 24.98 13.1 55.6 50 2.9 37.3 0
05:36 1017 30.03 846 24.98 13 55.4 53 3.6 38.5 0
05:37 1017 30.03 846 24.98 12.8 55 53 3.5 38.4 0
05:38 1017 30.03 846 24.98 12.5 54.5 54 3.4 38.1 0
05:39 1017 30.03 846 24.98 12.4 54.3 51 2.5 36.5 0
05:40 1017 30.03 846 24.98 12.6 54.8 50 2.6 36.7 0
05:41 1017 30.03 846 24.98 12.8 55.1 52 3.2 37.8 0
05:42 1017 30.03 846 24.98 12.7 54.8 52 3.2 37.7 0
05:43 1017 30.03 846 24.98 12.6 54.6 52 2.9 37.2 0
05:44 1017 30.03 846 24.98 12.6 54.6 53 3.3 38 0
05:45 1017 30.03 846 24.98 12.5 54.4 54 3.4 38.1 0
05:46 1017 30.03 846 24.98 12.4 54.2 54 3.4 38.1 0
05:47 1017 30.03 846 24.98 12.2 53.9 55 3.5 38.2 0
05:48 1017 30.03 846 24.98 12 53.6 55 3.4 38.1 0
05:49 1017 30.03 846 24.98 12 53.6 55 3.3 38 0
05:50 1017 30.03 846 24.98 12 53.5 55 3.3 38 0
05:51 1017 30.03 846 24.98 11.9 53.4 56 3.5 38.3 0
05:52 1017 30.03 846 24.98 11.7 53.1 57 3.6 38.5 0
05:53 1017 30.03 846 24.98 11.5 52.7 57 3.3 38 0
05:54 1017 30.03 846 24.98 11.6 52.8 56 3.2 37.8 0
05:55 1017 30.03 846 24.98 11.7 53.1 57 3.6 38.5 0
05:56 1017 30.03 846 24.98 11.6 52.9 58 3.7 38.6 0
05:57 1017 30.03 846 24.98 11.5 52.7 59 3.9 39 0
05:58 1017 30.03 846 24.98 11.4 52.4 59 3.7 38.7 0
05:59 1017 30.03 846 24.98 11.2 52.2 61 4 39.2 0
06:00 1017 30.03 846 24.98 11.2 52.1 61 4 39.1 0
06:01 1017 30.03 846 24.98 11.1 52 61 4 39.2 0
06:02 1017 30.03 846 24.98 11 51.8 62 4.1 39.3 0
06:03 1017 30.03 846 24.98 10.9 51.6 62 4.1 39.3 0
06:04 1017 30.03 846 24.98 10.9 51.5 62 3.9 39 0
06:05 1017 30.03 846 24.98 10.9 51.5 64 4.4 39.9 0
06:06 1017 30.03 846 24.98 10.7 51.3 66 4.6 40.3 0
06:07 1017 30.03 846 24.98 10.6 51 65 4.4 39.9 0
06:08 1017 30.03 846 24.98 10.5 51 67 4.6 40.3 0
06:09 1017 30.03 846 24.98 10.4 50.7 68 4.7 40.5 0
06:10 1017 30.03 846 24.98 10.3 50.5 68 4.7 40.5 0
06:11 1017 30.03 846 24.98 10.2 50.3 68 4.4 40 0
06:12 1017 30.03 846 24.98 10.1 50.3 69 4.7 40.4 0
06:13 1017 30.03 846 24.98 10.1 50.1 68 4.5 40 0
06:14 1017 30.03 846 24.98 10.1 50.3 66 4.1 39.3 0
06:15 1017 30.03 846 24.98 10.3 50.5 67 4.4 39.9 0
06:16 1017 30.03 846 24.98 10.2 50.4 67 4.5 40 0
06:17 1017 30.03 846 24.98 10.2 50.3 68 4.5 40.1 0
06:18 1017 30.03 846 24.98 10.1 50.2 67 4.3 39.7 0
06:19 1017 30.03 846 24.98 10 50.1 66 4 39.1 0
06:20 1017 30.03 846 24.98 10.2 50.3 65 3.9 39.1 0
06:21 1017 30.03 846 24.98 10.3 50.5 65 4 39.2 0
06:22 1017 30.03 846 24.98 10.3 50.6 65 4.2 39.5 0
06:23 1017 30.03 846 24.98 10.2 50.4 67 4.4 39.8 0
06:24 1017 30.03 846 24.98 10.1 50.2 66 4 39.2 0
06:25 1017 30.03 846 24.98 10.3 50.5 65 3.9 39.1 0
06:26 1017 30.03 846 24.98 10.4 50.7 63 3.7 38.7 0
06:27 1017 30.03 846 24.98 10.6 51 62 3.8 38.8 0
06:28 1017 30.03 846 24.98 10.8 51.4 62 3.8 38.8 0
06:29 1017 30.03 846 24.98 10.8 51.4 64 4.3 39.8 0
06:30 1017 30.03 846 24.98 10.5 50.9 65 4.3 39.7 0
06:31 1017 30.03 846 24.98 10.4 50.7 65 4.1 39.4 0
06:32 1017 30.03 846 24.98 10.5 50.8 66 4.4 40 0
06:33 1017 30.03 846 24.98 10.3 50.6 67 4.4 40 0
06:34 1017 30.03 846 24.98 10.2 50.4 67 4.4 39.9 0
06:35 1017 30.03 846 24.98 10.3 50.6 64 3.9 39 0
06:36 1017 30.03 846 24.98 10.6 51.1 66 4.5 40.1 0
06:37 1017 30.03 846 24.98 10.8 51.4 62 3.8 38.8 0
06:38 1017 30.03 846 24.98 11.2 52.2 58 3.4 38.2 0
06:39 1017 30.03 846 24.98 11.8 53.2 59 4 39.3 0
06:40 1017 30.03 846 24.98 12 53.6 59 4.2 39.6 0
06:41 1017 30.03 846 24.98 12.1 53.7 59 4.5 40 0
06:42 1017 30.03 846 24.98 12.3 54.1 58 4.3 39.7 0
06:43 1017 30.03 846 24.98 12.5 54.5 57 4.3 39.7 0
06:44 1017 30.03 846 24.98 12.7 54.8 57 4.4 40 0
06:45 1017 30.03 846 24.98 12.8 55 56 4.2 39.6 0
06:46 1017 30.03 846 24.98 12.9 55.2 54 3.9 38.9 0
06:47 1017 30.03 846 24.98 13 55.4 56 4.4 40 0
06:48 1017 30.03 846 24.98 13.1 55.6 56 4.7 40.4 0
06:49 1017 30.03 846 24.98 13.2 55.7 55 4.5 40.1 0
06:50 1017 30.03 846 24.98 13.3 55.9 57 5 40.9 0
06:51 1017 30.03 846 24.98 13.4 56.1 56 4.8 40.7 0
06:52 1017 30.03 846 24.98 13.6 56.4 55 4.8 40.6 0
06:53 1017 30.03 846 24.98 13.8 56.8 53 4.5 40 0
06:54 1017 30.03 846 24.98 14 57.1 55 5.2 41.4 0
06:55 1017 30.03 846 24.98 14.1 57.4 52 4.6 40.2 0
06:56 1017 30.03 846 24.98 14.3 57.8 54 5.3 41.5 0
06:57 1017 30.03 846 24.98 14.5 58 55 5.7 42.2 0
06:58 1017 30.03 846 24.98 14.7 58.4 53 5.3 41.5 0
06:59 1017 30.03 846 24.98 14.8 58.7 54 5.7 42.3 0
07:00 1017 30.03 846 24.98 15 58.9 54 5.7 42.3 0
07:01 1017 30.03 846 24.98 15.1 59.2 55 6.1 43 0
07:02 1017 30.03 846 24.98 15.3 59.5 56 6.6 43.9 0
07:03 1017 30.03 846 24.98 15.5 59.8 52 5.6 42.1 0
07:04 1017 30.03 846 24.98 15.7 60.2 51 5.6 42.1 0
07:05 1017 30.03 846 24.98 15.8 60.5 50 5.5 41.9 0
07:06 1017 30.03 846 24.98 15.9 60.6 51 5.9 42.6 0
07:07 1017 30.03 846 24.98 16 60.7 53 6.5 43.7 0
07:08 1017 30.03 846 24.98 16 60.8 56 7.4 45.3 0
07:09 1017 30.03 846 24.98 15.9 60.5 54 6.7 44.1 0
07:10 1017 30.03 846 24.98 15.7 60.3 53 6.2 43.2 0
07:11 1017 30.03 846 24.98 15.6 60 58 7.4 45.3 0
07:12 1017 30.03 846 24.98 15.4 59.7 56 6.7 44.1 0
07:13 1017 30.03 846 24.98 15.3 59.5 57 6.8 44.3 0
07:14 1017 30.03 846 24.98 15.2 59.3 57 6.7 44.1 0
07:15 1017 30.03 846 24.98 15.1 59.1 58 6.8 44.3 0
07:16 1017 30.03 846 24.98 15 58.9 59 7.1 44.8 0
07:17 1017 30.03 846 24.98 14.9 58.8 57 6.5 43.7 0
07:18 1017 30.03 846 24.98 14.8 58.6 59 6.9 44.4 0
07:19 1017 30.03 846 24.98 14.7 58.5 56 6 42.8 0
07:20 1017 30.03 846 24.98 14.7 58.5 57 6.4 43.5 0
07:21 1017 30.03 846 24.98 14.7 58.5 58 6.7 44.1 0
07:22 1017 30.03 846 24.98 14.7 58.5 57 6.5 43.7 0
07:23 1017 30.03 846 24.98 14.7 58.5 53 5.4 41.7 0
07:24 1017 30.03 847 25.01 14.8 58.6 58 6.7 44.1 0
07:25 1017 30.03 847 25.01 14.8 58.6 57 6.5 43.7 0
07:26 1017 30.03 847 25.01 14.8 58.7 56 6.1 43 0
07:27 1017 30.03 847 25.01 15 58.9 53 5.7 42.2 0
07:28 1017 30.03 847 25.01 15.1 59.2 54 6 42.8 0
07:29 1018 30.06 847 25.01 15.3 59.5 53 5.8 42.5 0
07:30 1018 30.06 847 25.01 15.4 59.6 54 6.1 43 0
07:31 1018 30.06 847 25.01 15.4 59.8 55 6.5 43.7 0
07:32 1018 30.06 847 25.01 15.5 59.8 55 6.6 43.8 0
07:33 1018 30.06 847 25.01 15.4 59.8 57 6.9 44.5 0
07:34 1018 30.06 847 25.01 15.4 59.7 55 6.5 43.6 0
07:35 1018 30.06 847 25.01 15.3 59.6 59 7.6 45.6 0
07:36 1018 30.06 847 25.01 15.2 59.3 59 7.4 45.3 0
07:37 1018 30.06 847 25.01 15 59 59 7.1 44.8 0
07:38 1018 30.06 847 25.01 14.8 58.7 60 7.2 45 0
07:39 1018 30.06 847 25.01 14.8 58.7 59 6.9 44.5 0
07:40 1018 30.06 847 25.01 14.8 58.6 58 6.6 44 0
07:41 1018 30.06 847 25.01 14.8 58.7 62 7.8 46 0
07:42 1018 30.06 847 25.01 14.8 58.7 60 7.3 45.1 0
07:43 1018 30.06 847 25.01 14.8 58.7 62 7.7 45.8 0
07:44 1018 30.06 847 25.01 14.9 58.8 64 8.1 46.7 0
07:45 1018 30.06 847 25.01 14.9 58.8 60 7.4 45.3 0
07:46 1018 30.06 847 25.01 15 58.9 61 7.5 45.5 0
07:47 1018 30.06 847 25.01 15.1 59.1 61 7.7 45.9 0
07:48 1018 30.06 847 25.01 15.2 59.3 60 7.5 45.5 0
07:49 1018 30.06 847 25.01 15.3 59.5 60 7.7 45.9 0
07:50 1018 30.06 847 25.01 15.4 59.6 65 8.9 48 0
07:51 1018 30.06 847 25.01 15.5 59.9 69 9.8 49.6 0
07:52 1018 30.06 847 25.01 15.6 60.1 61 8.3 47 0
07:53 1018 30.06 847 25.01 15.8 60.4 65 9.2 48.6 0
07:54 1018 30.06 847 25.01 15.9 60.5 64 9 48.3 0
07:55 1018 30.06 847 25.01 15.9 60.6 58 7.6 45.7 0
07:56 1018 30.06 847 25.01 15.9 60.6 55 7 44.5 0
07:57 1018 30.06 847 25.01 16 60.7 57 7.5 45.4 0
07:58 1018 30.06 847 25.01 16.1 60.9 59 8.1 46.6 0
07:59 1018 30.06 847 25.01 16.1 61 59 8.2 46.8 0
08:00 1018 30.06 847 25.01 16.2 61.1 57 7.8 46.1 0
08:01 1018 30.06 847 25.01 16.3 61.3 54 7.1 44.9 0
08:02 1018 30.06 847 25.01 16.4 61.5 54 7.2 44.9 0
08:03 1018 30.06 847 25.01 16.5 61.7 59 8.7 47.6 0
08:04 1018 30.06 847 25.01 16.5 61.8 56 7.9 46.1 0
08:05 1018 30.06 847 25.01 16.6 61.9 56 8 46.3 0
08:06 1018 30.06 847 25.01 16.7 62 58 8.3 47 0
08:07 1018 30.06 847 25.01 16.8 62.3 61 9.4 49 0
08:08 1018 30.06 847 25.01 17 62.5 56 8.2 46.8 0
08:09 1018 30.06 847 25.01 17.2 62.9 53 7.6 45.7 0
08:10 1018 30.06 847 25.01 17.3 63.2 52 7.5 45.4 0
08:11 1018 30.06 847 25.01 17.4 63.4 50 7.1 44.9 0
08:12 1018 30.06 847 25.01 17.5 63.5 51 7.4 45.4 0
08:13 1018 30.06 847 25.01 17.6 63.7 53 8.1 46.6 0
08:14 1018 30.06 847 25.01 17.7 63.8 50 7.2 44.9 0
08:15 1018 30.06 847 25.01 17.7 63.9 56 8.9 48 0
08:16 1018 30.06 847 25.01 17.8 64.1 44 5.4 41.7 0
08:17 1018 30.06 847 25.01 17.8 64 49 7 44.7 0
08:18 1018 30.06 847 25.01 17.8 64 49 6.9 44.5 0
08:19 1018 30.06 847 25.01 17.7 63.8 49 6.9 44.4 0
08:20 1018 30.06 847 25.01 17.6 63.6 48 6.6 43.9 0
08:21 1018 30.06 847 25.01 17.5 63.5 45 5.6 42.1 0
08:22 1018 30.06 847 25.01 17.5 63.5 46 5.8 42.4 0
08:23 1018 30.06 847 25.01 17.6 63.6 47 6.3 43.4 0
08:24 1018 30.06 847 25.01 17.6 63.6 46 5.8 42.4 0
08:25 1018 30.06 847 25.01 17.7 63.8 48 6.5 43.7 0
08:26 1018 30.06 847 25.01 17.7 63.9 50 7.2 44.9 0
08:27 1018 30.06 847 25.01 17.7 63.9 46 6 42.8 0
08:28 1018 30.06 847 25.01 17.7 63.8 47 6.3 43.3 0
08:29 1018 30.06 847 25.01 17.7 63.9 50 7.2 45 0
08:30 1018 30.06 847 25.01 17.7 63.8 45 5.7 42.2 0
08:31 1018 30.06 847 25.01 17.7 63.8 45 5.6 42 0
08:32 1018 30.06 847 25.01 17.7 63.9 46 6 42.8 0
08:33 1018 30.06 847 25.01 17.8 64 49 7 44.5 0
08:34 1018 30.06 847 25.01 17.8 64 45 5.8 42.4 0
08:35 1018 30.06 847 25.01 17.8 64.1 43 5 41.1 0
08:36 1018 30.06 847 25.01 17.8 64.1 44 5.5 41.9 0
08:37 1018 30.06 847 25.01 17.8 64.1 47 6.3 43.4 0
08:38 1018 30.06 847 25.01 17.8 64.1 45 5.8 42.4 0
08:39 1018 30.06 847 25.01 17.8 64 50 7.4 45.4 0
08:40 1018 30.06 847 25.01 17.8 64.1 48 6.7 44 0
08:41 1018 30.06 847 25.01 17.9 64.2 46 6.3 43.4 0
08:42 1018 30.06 847 25.01 17.9 64.2 51 7.9 46.2 0
08:43 1018 30.06 847 25.01 17.9 64.2 49 7.1 44.7 0
08:44 1018 30.06 847 25.01 18 64.4 49 7.3 45.2 0
08:45 1018 30.06 847 25.01 18 64.5 47 6.8 44.3 0
08:46 1018 30.06 847 25.01 18.1 64.6 49 7.4 45.4 0
08:47 1018 30.06 847 25.01 18.1 64.6 49 7.4 45.3 0
08:48 1018 30.06 847 25.01 18.2 64.7 48 7 44.6 0
08:49 1018 30.06 847 25.01 18.2 64.8 46 6.7 44 0
08:50 1018 30.06 847 25.01 18.3 64.9 50 7.8 46 0
08:51 1018 30.06 847 25.01 18.4 65 45 6.3 43.4 0
08:52 1018 30.06 847 25.01 18.4 65.1 49 7.6 45.7 0
08:53 1018 30.06 847 25.01 18.4 65.1 48 7.4 45.3 0
08:54 1018 30.06 847 25.01 18.4 65.1 51 8.2 46.7 0
08:55 1018 30.06 847 25.01 18.4 65.2 48 7.3 45.2 0
08:56 1018 30.06 847 25.01 18.5 65.3 44 6.1 43 0
08:57 1018 30.06 847 25.01 18.5 65.3 49 7.8 46 0
08:58 1018 30.06 847 25.01 18.5 65.3 49 7.7 45.9 0
08:59 1018 30.06 847 25.01 18.5 65.3 48 7.3 45.2 0
09:00 1018 30.06 847 25.01 18.5 65.3 50 7.9 46.2 0
09:01 1018 30.06 847 25.01 18.5 65.2 46 6.6 43.9 0
09:02 1018 30.06 847 25.01 18.5 65.3 51 8.4 47.1 0
09:03 1018 30.06 847 25.01 18.5 65.3 49 7.6 45.7 0
09:04 1018 30.06 847 25.01 18.5 65.3 48 7.3 45.1 0
09:05 1018 30.06 847 25.01 18.5 65.2 46 6.6 43.9 0
09:06 1018 30.06 847 25.01 18.4 65.1 49 7.6 45.6 0
09:07 1018 30.06 847 25.01 18.4 65.1 52 8.6 47.4 0
09:08 1018 30.06 847 25.01 18.4 65.1 47 7 44.7 0
09:09 1018 30.06 847 25.01 18.4 65.2 50 7.9 46.3 0
09:10 1018 30.06 847 25.01 18.4 65.2 49 7.7 45.8 0
09:11 1018 30.06 847 25.01 18.5 65.3 46 6.9 44.5 0
09:12 1018 30.06 847 25.01 18.5 65.2 50 8 46.5 0
09:13 1018 30.06 847 25.01 18.5 65.3 50 7.9 46.2 0
09:14 1018 30.06 847 25.01 18.5 65.3 52 8.5 47.4 0
09:15 1018 30.06 847 25.01 18.5 65.4 53 9 48.1 0
09:16 1018 30.06 847 25.01 18.6 65.5 53 9 48.1 0
09:17 1018 30.06 847 25.01 18.6 65.6 52 8.6 47.6 0
09:18 1018 30.06 847 25.01 18.7 65.6 46 7 44.7 0
09:19 1018 30.06 847 25.01 18.8 65.8 50 8.1 46.7 0
09:20 1018 30.06 847 25.01 18.8 65.9 48 7.6 45.6 0
09:21 1018 30.06 847 25.01 18.9 66 48 7.6 45.8 0
09:22 1018 30.06 847 25.01 18.9 66.1 46 7.1 44.8 0
09:23 1018 30.06 847 25.01 18.9 66.1 50 8.4 47.1 0
09:24 1018 30.06 847 25.01 19 66.2 51 8.6 47.6 0
09:25 1018 30.06 847 25.01 19.1 66.3 53 9.3 48.8 0
09:26 1018 30.06 847 25.01 19.2 66.5 53 9.3 48.8 0
09:27 1018 30.06 847 25.01 19.2 66.5 44 6.7 44.1 0
09:28 1018 30.06 847 25.01 19.2 66.6 48 8.1 46.7 0
09:29 1018 30.06 847 25.01 19.3 66.7 48 8.2 46.7 0
09:30 1018 30.06 847 25.01 19.4 66.8 48 8.2 46.7 0
09:31 1018 30.06 847 25.01 19.4 66.9 50 8.7 47.7 0
09:32 1018 30.06 847 25.01 19.4 67 46 7.5 45.5 0
09:33 1018 30.06 847 25.01 19.4 67 46 7.6 45.6 0
09:34 1018 30.06 847 25.01 19.4 67 51 9.2 48.5 0
09:35 1018 30.06 847 25.01 19.6 67.2 45 7.4 45.4 0
09:36 1018 30.06 847 25.01 19.6 67.3 41 6.2 43.2 0
09:37 1018 30.06 847 25.01 19.7 67.5 44 7.1 44.8 0
09:38 1018 30.06 847 25.01 19.7 67.5 45 7.4 45.4 0
09:39 1018 30.06 847 25.01 19.8 67.6 39 5.5 41.8 0
09:40 1018 30.06 847 25.01 19.8 67.7 44 7.3 45.2 0
09:41 1018 30.06 847 25.01 19.9 67.8 45 7.6 45.7 0
09:42 1018 30.06 847 25.01 19.9 67.9 46 8.1 46.6 0
09:43 1018 30.06 847 25.01 19.9 67.9 44 7.4 45.3 0
09:44 1018 30.06 847 25.01 19.9 67.8 47 8.5 47.2 0
09:45 1018 30.06 847 25.01 19.9 67.8 46 7.9 46.2 0
09:46 1018 30.06 847 25.01 19.9 67.8 44 7.6 45.7 0
09:47 1018 30.06 847 25.01 19.9 67.9 40 5.9 42.7 0
09:48 1018 30.06 847 25.01 20 67.9 48 8.7 47.7 0
09:49 1018 30.06 847 25.01 20 67.9 39 5.9 42.6 0
09:50 1018 30.06 847 25.01 20 67.9 42 6.8 44.2 0
09:51 1018 30.06 847 25.01 20 68 47 8.5 47.3 0
09:52 1018 30.06 847 25.01 20.1 68.2 49 9.3 48.7 0
09:53 1018 30.06 847 25.01 20.1 68.2 43 7.3 45.2 0
09:54 1018 30.06 847 25.01 20.2 68.3 48 8.9 48.1 0
09:55 1018 30.06 847 25.01 20.3 68.6 42 7.2 45 0
09:56 1018 30.06 847 25.01 20.4 68.7 43 7.4 45.4 0
09:57 1018 30.06 847 25.01 20.4 68.7 38 5.6 42.1 0
09:58 1018 30.06 847 25.01 20.3 68.6 41 7 44.6 0
09:59 1018 30.06 847 25.01 20.3 68.6 41 6.9 44.4 0
10:00 1018 30.06 847 25.01 20.3 68.6 43 7.6 45.7 0
10:01 1018 30.06 847 25.01 20.4 68.7 46 8.4 47.1 0
10:02 1018 30.06 847 25.01 20.4 68.7 45 8.3 46.9 0
10:03 1018 30.06 847 25.01 20.5 68.9 39 6.3 43.3 0
10:04 1018 30.06 847 25.01 20.5 68.9 39 6.2 43.1 0
10:05 1018 30.06 847 25.01 20.6 69 45 8.4 47.1 0
10:06 1018 30.06 847 25.01 20.6 69.1 37 5.7 42.2 0
10:07 1018 30.06 847 25.01 20.6 69.1 34 4.5 40.1 0
10:08 1018 30.06 847 25.01 20.5 69 42 7.4 45.3 0
10:09 1018 30.06 847 25.01 20.6 69 35 4.8 40.6 0
10:10 1018 30.06 847 25.01 20.6 69.1 36 5.2 41.4 0
10:11 1018 30.06 847 25.01 20.7 69.2 38 5.9 42.6 0
10:12 1018 30.06 847 25.01 20.6 69.2 38 6.2 43.1 0
10:13 1018 30.06 847 25.01 20.6 69.1 42 7.6 45.6 0
10:14 1018 30.06 847 25.01 20.6 69 41 7.1 44.7 0
10:15 1018 30.06 847 25.01 20.5 68.9 33 3.7 38.6 0
10:16 1018 30.06 847 25.01 20.6 69 46 8.6 47.4 0
10:17 1018 30.06 847 25.01 20.6 69.1 39 6.2 43.1 0
10:18 1018 30.06 847 25.01 20.6 69.2 42 7.6 45.7 0
10:19 1018 30.06 847 25.01 20.7 69.3 48 9.3 48.8 0
10:20 1018 30.06 847 25.01 20.8 69.5 39 6.4 43.5 0
10:21 1018 30.06 847 25.01 21 69.7 37 5.8 42.4 0
10:22 1018 30.06 847 25.01 21 69.8 34 4.6 40.3 0
10:23 1018 30.06 847 25.01 21 69.8 40 7 44.6 0
10:24 1018 30.06 847 25.01 21 69.8 32 3.7 38.7 0
10:25 1018 30.06 847 25.01 20.9 69.7 37 5.8 42.4 0
10:26 1018 30.06 847 25.01 20.9 69.6 34 4.5 40.1 0
10:27 1018 30.06 847 25.01 21 69.7 36 5.6 42.1 0
10:28 1018 30.06 847 25.01 20.9 69.7 37 5.8 42.4 0
10:29 1018 30.06 847 25.01 21 69.7 38 6.3 43.3 0
10:30 1018 30.06 847 25.01 21.1 69.9 36 5.5 42 0
10:31 1018 30.06 847 25.01 21.1 69.9 30 3.1 37.6 0
10:32 1018 30.06 847 25.01 21 69.8 33 4.4 39.9 0
10:33 1018 30.06 847 25.01 21 69.7 42 7.6 45.7 0
10:34 1018 30.06 847 25.01 21 69.9 41 7.4 45.3 0
10:35 1018 30.06 847 25.01 21.1 70 40 7.1 44.8 0
10:36 1018 30.06 847 25.01 21.2 70.1 38 6.3 43.4 0
10:37 1018 30.06 847 25.01 21.2 70.1 37 6.1 43 0
10:38 1018 30.06 847 25.01 21.1 70 38 6.3 43.3 0
10:39 1018 30.06 847 25.01 21.1 70 32 3.9 39 0
10:40 1018 30.06 847 25.01 21.1 70 36 5.6 42.1 0
10:41 1018 30.06 847 25.01 21.2 70.1 33 4.2 39.6 0
10:42 1018 30.06 847 25.01 21.3 70.3 31 3.7 38.6 0
10:43 1018 30.06 847 25.01 21.3 70.3 34 4.9 40.8 0
10:44 1018 30.06 847 25.01 21.2 70.2 29 2.9 37.2 0
10:45 1018 30.06 847 25.01 21.2 70.2 30 2.9 37.3 0
10:46 1018 30.06 847 25.01 21.2 70.2 32 3.9 39 0
10:47 1018 30.06 847 25.01 21.2 70.2 38 6.6 43.9 0
10:48 1018 30.06 847 25.01 21.3 70.3 40 7.4 45.3 0
10:49 1018 30.06 847 25.01 21.3 70.3 33 4.3 39.8 0
10:50 1018 30.06 847 25.01 21.2 70.1 40 7.1 44.8 0
10:51 1018 30.06 847 25.01 21.1 70 37 5.9 42.6 0
10:52 1018 30.06 847 25.01 21.1 70 32 3.9 39.1 0
10:53 1018 30.06 847 25.01 21.1 70 37 5.9 42.7 0
10:54 1018 30.06 847 25.01 21.2 70.2 39 6.7 44.1 0
10:55 1018 30.06 847 25.01 21.3 70.3 33 4.6 40.2 0
10:56 1018 30.06 847 25.01 21.3 70.3 33 4.4 39.8 0
10:57 1018 30.06 847 25.01 21.2 70.1 30 3.3 38 0
10:58 1018 30.06 847 25.01 21.1 69.9 37 5.9 42.6 0
10:59 1018 30.06 847 25.01 21.1 69.9 35 5.1 41.1 0
11:00 1018 30.06 847 25.01 21.1 69.9 38 6.2 43.2 0
11:01 1018 30.06 847 25.01 21.1 70 36 5.7 42.3 0
11:02 1018 30.06 847 25.01 21.1 70 38 6.6 43.8 0
11:03 1018 30.06 847 25.01 21.1 70 37 6 42.8 0
11:04 1018 30.06 847 25.01 21.1 70 36 5.5 41.9 0
11:05 1018 30.06 847 25.01 21.1 70 44 8.5 47.4 0
11:06 1018 30.06 847 25.01 21.2 70.1 36 5.6 42 0
11:07 1018 30.06 847 25.01 21.2 70.1 40 7.2 44.9 0
11:08 1018 30.06 847 25.01 21.2 70.2 37 6.1 43 0
11:09 1018 30.06 847 25.01 21.3 70.3 35 5.5 41.9 0
11:10 1018 30.06 847 25.01 21.2 70.1 34 5.1 41.1 0
11:11 1018 30.06 847 25.01 21.2 70.2 37 6.2 43.1 0
11:12 1018 30.06 847 25.01 21.2 70.2 36 5.7 42.3 0
11:13 1018 30.06 847 25.01 21.2 70.1 39 6.7 44 0
11:14 1018 30.06 847 25.01 21.2 70.1 49 10.3 50.5 0
11:15 1018 30.06 847 25.01 21.2 70.2 42 8 46.5 0
11:16 1018 30.06 847 25.01 21.2 70.2 40 7.3 45.2 0
11:17 1018 30.06 847 25.01 21.2 70.2 40 7.4 45.4 0
11:18 1018 30.06 847 25.01 21.3 70.3 48 9.9 49.8 0
11:19 1018 30.06 847 25.01 21.3 70.4 40 7.4 45.4 0
11:20 1018 30.06 847 25.01 21.2 70.2 41 7.6 45.7 0
11:21 1018 30.06 847 25.01 21.2 70.1 40 7.3 45.1 0
11:22 1018 30.06 847 25.01 21.1 70.1 43 8.3 47 0
11:23 1018 30.06 847 25.01 21.2 70.1 49 10 50.1 0
11:24 1018 30.06 847 25.01 21.3 70.3 45 9.2 48.5 0
11:25 1018 30.06 847 25.01 21.4 70.5 40 7.4 45.2 0
11:26 1018 30.06 847 25.01 21.3 70.3 41 7.7 45.9 0
11:27 1018 30.06 847 25.01 21.3 70.3 39 6.8 44.2 0
11:28 1018 30.06 847 25.01 21.2 70.1 39 6.8 44.2 0
11:29 1018 30.06 847 25.01 21.2 70.1 42 8 46.4 0
11:30 1018 30.06 847 25.01 21.3 70.3 43 8.3 47 0
11:31 1018 30.06 847 25.01 21.2 70.2 41 7.7 45.9 0
11:32 1018 30.06 847 25.01 21.2 70.2 47 9.5 49.2 0
11:33 1018 30.06 847 25.01 21.4 70.5 42 8.2 46.7 0
11:34 1018 30.06 847 25.01 21.4 70.6 44 8.9 48 0
11:35 1018 30.06 847 25.01 21.6 70.8 50 10.9 51.7 0
11:36 1017 30.03 847 25.01 21.7 71 40 7.6 45.8 0
11:37 1017 30.03 847 25.01 21.6 70.8 42 8.2 46.8 0
11:38 1017 30.03 847 25.01 21.6 70.8 44 9 48.1 0
11:39 1017 30.03 847 25.01 21.6 70.8 40 7.6 45.8 0
11:40 1017 30.03 847 25.01 21.6 70.9 38 6.9 44.4 0
11:41 1018 30.06 847 25.01 21.7 71.1 47 10.1 50.1 0
11:42 1018 30.06 847 25.01 21.8 71.2 39 7.4 45.3 0
11:43 1018 30.06 847 25.01 21.8 71.2 39 7.4 45.3 0
11:44 1018 30.06 847 25.01 21.8 71.2 37 6.5 43.7 0
11:45 1018 30.06 847 25.01 21.8 71.3 38 7 44.6 0
11:46 1018 30.06 847 25.01 21.8 71.3 37 6.7 44 0
11:47 1017 30.03 847 25.01 21.9 71.5 39 7.5 45.6 0
11:48 1017 30.03 847 25.01 22 71.7 36 6.6 43.9 0
11:49 1017 30.03 847 25.01 22.1 71.7 41 8.3 46.9 0
11:50 1018 30.06 847 25.01 22 71.6 39 7.8 46 0
11:51 1018 30.06 847 25.01 22 71.7 39 7.7 45.8 0
11:52 1018 30.06 847 25.01 22 71.6 35 5.9 42.5 0
11:53 1017 30.03 847 25.01 22.1 71.7 39 7.5 45.5 0
11:54 1017 30.03 847 25.01 22 71.7 32 4.8 40.6 0
11:55 1017 30.03 847 25.01 22 71.6 32 4.5 40.1 0
11:56 1017 30.03 847 25.01 22.1 71.7 33 5.4 41.6 0
11:57 1017 30.03 847 25.01 22.1 71.8 40 7.9 46.3 0
11:58 1017 30.03 847 25.01 22.2 72 36 6.8 44.2 0
11:59 1017 30.03 847 25.01 22.2 72 36 6.4 43.6 0
12:00 1017 30.03 847 25.01 22.1 71.9 37 6.8 44.3 0
12:01 1017 30.03 847 25.01 22.1 71.8 41 8.2 46.8 0
12:02 1017 30.03 847 25.01 22.2 71.9 36 6.6 43.8 0
12:03 1017 30.03 847 25.01 22.2 71.9 34 5.8 42.4 0
12:04 1017 30.03 847 25.01 22.2 71.9 38 7.3 45.1 0
12:05 1017 30.03 847 25.01 22.2 71.9 39 7.6 45.6 0
12:06 1017 30.03 847 25.01 22.1 71.8 40 8.2 46.7 0
12:07 1017 30.03 847 25.01 22.1 71.7 32 5 41 0
12:08 1017 30.03 847 25.01 22.1 71.7 38 7.1 44.9 0
12:09 1017 30.03 847 25.01 22.1 71.8 35 6.2 43.2 0
12:10 1017 30.03 847 25.01 22.2 71.9 41 8.5 47.4 0
12:11 1017 30.03 847 25.01 22.3 72.1 33 5.6 42 0
12:12 1017 30.03 847 25.01 22.3 72.2 37 7 44.7 0
12:13 1017 30.03 847 25.01 22.4 72.4 33 5.7 42.2 0
12:14 1017 30.03 847 25.01 22.5 72.4 32 5.2 41.4 0
12:15 1017 30.03 847 25.01 22.4 72.3 40 8.3 46.9 0
12:16 1017 30.03 847 25.01 22.4 72.2 31 4.6 40.3 0
12:17 1017 30.03 847 25.01 22.3 72.1 32 4.9 40.7 0
12:18 1017 30.03 846 24.98 22.3 72.2 31 4.5 40.1 0
12:19 1017 30.03 846 24.98 22.5 72.4 41 8.8 47.9 0
12:20 1017 30.03 846 24.98 22.7 72.8 39 8.3 47 0
12:21 1017 30.03 846 24.98 22.7 72.9 36 7.2 45 0
12:22 1017 30.03 846 24.98 22.7 72.9 35 6.8 44.3 0
12:23 1017 30.03 846 24.98 22.7 72.9 32 5.4 41.7 0
12:24 1017 30.03 846 24.98 22.6 72.7 33 5.7 42.3 0
12:25 1017 30.03 846 24.98 22.6 72.6 31 4.7 40.4 0
12:26 1017 30.03 846 24.98 22.5 72.5 36 7 44.5 0
12:27 1017 30.03 846 24.98 22.6 72.7 40 8.3 47 0
12:28 1017 30.03 846 24.98 22.6 72.8 40 8.6 47.4 0
12:29 1017 30.03 846 24.98 22.8 73 33 5.8 42.5 0
12:30 1017 30.03 846 24.98 22.9 73.2 42 9.4 48.9 0
12:31 1017 30.03 846 24.98 23 73.3 38 8.2 46.8 0
12:32 1017 30.03 846 24.98 23 73.4 30 4.5 40.2 0
12:33 1017 30.03 846 24.98 23 73.3 31 4.9 40.9 0
12:34 1017 30.03 846 24.98 22.9 73.1 32 5.4 41.8 0
12:35 1017 30.03 846 24.98 22.9 73.1 32 5.5 42 0
12:36 1017 30.03 846 24.98 22.9 73.3 41 9.1 48.4 0
12:37 1017 30.03 846 24.98 23 73.5 30 4.6 40.3 0
12:38 1017 30.03 846 24.98 23 73.3 36 7.3 45.1 0
12:39 1017 30.03 846 24.98 23 73.4 35 6.8 44.2 0
12:40 1017 30.03 846 24.98 23 73.4 45 10.6 51 0
12:41 1017 30.03 846 24.98 23.1 73.6 42 9.7 49.5 0
12:42 1017 30.03 846 24.98 23.3 73.9 31 5.3 41.5 0
12:43 1017 30.03 846 24.98 23.3 73.9 34 6.8 44.2 0
12:44 1017 30.03 846 24.98 23.2 73.8 39 8.6 47.5 0
12:45 1017 30.03 846 24.98 23.4 74.1 36 7.6 45.8 0
12:46 1017 30.03 846 24.98 23.4 74.2 38 8.4 47 0
12:47 1017 30.03 846 24.98 23.5 74.3 33 6.5 43.6 0
12:48 1017 30.03 846 24.98 23.6 74.4 32 6 42.9 0
12:49 1017 30.03 846 24.98 23.6 74.5 28 4.3 39.7 0
12:50 1017 30.03 846 24.98 23.6 74.5 30 5.3 41.6 0
12:51 1017 30.03 846 24.98 23.6 74.5 33 6.6 43.9 0
12:52 1017 30.03 846 24.98 23.7 74.7 38 8.7 47.7 0
12:53 1017 30.03 846 24.98 23.8 74.8 35 7.6 45.7 0
12:54 1017 30.03 846 24.98 23.8 74.8 30 5.4 41.7 0
12:55 1017 30.03 846 24.98 23.5 74.4 30 5.2 41.3 0
12:56 1017 30.03 846 24.98 23.4 74.1 33 6.3 43.4 0
12:57 1017 30.03 846 24.98 23.4 74 40 9 48.3 0
12:58 1017 30.03 846 24.98 23.4 74 40 9 48.3 0
12:59 1017 30.03 846 24.98 23.4 74 40 9.2 48.6 0
13:00 1017 30.03 846 24.98 23.4 74.1 34 6.7 44.1 0
13:01 1017 30.03 846 24.98 23.4 74.1 30 5.2 41.4 0
13:02 1017 30.03 846 24.98 23.4 74.1 35 7.1 44.8 0
13:03 1017 30.03 846 24.98 23.5 74.2 33 6.6 43.8 0
13:04 1017 30.03 846 24.98 23.6 74.5 32 6.2 43.2 0
13:05 1017 30.03 846 24.98 23.7 74.7 37 8.5 47.2 0
13:06 1017 30.03 846 24.98 23.7 74.7 36 7.8 46.1 0
13:07 1017 30.03 846 24.98 23.8 74.8 31 5.7 42.2 0
13:08 1017 30.03 846 24.98 23.8 74.8 33 7 44.5 0
13:09 1017 30.03 846 24.98 23.8 74.8 30 5.4 41.8 0
13:10 1017 30.03 846 24.98 23.7 74.7 35 7.7 45.8 0
13:11 1017 30.03 846 24.98 23.7 74.7 31 5.8 42.5 0
13:12 1017 30.03 846 24.98 23.7 74.6 31 5.7 42.2 0
13:13 1017 30.03 846 24.98 23.6 74.5 29 4.9 40.8 0
13:14 1017 30.03 846 24.98 23.6 74.4 32 6 42.8 0
13:15 1017 30.03 846 24.98 23.6 74.5 39 9.1 48.3 0
13:16 1017 30.03 846 24.98 23.8 74.8 34 7.2 44.9 0
13:17 1017 30.03 846 24.98 23.9 75.1 33 7 44.7 0
13:18 1017 30.03 846 24.98 24 75.1 39 9.4 48.9 0
13:19 1017 30.03 846 24.98 24 75.2 34 7.5 45.5 0
13:20 1017 30.03 846 24.98 24 75.3 35 7.8 46.1 0
13:21 1017 30.03 846 24.98 24.2 75.5 39 9.6 49.4 0
13:22 1017 30.03 846 24.98 24.3 75.7 31 6.5 43.7 0
13:23 1017 30.03 846 24.98 24.2 75.6 30 5.7 42.2 0
13:24 1017 30.03 846 24.98 24.1 75.4 31 6.1 43 0
13:25 1017 30.03 846 24.98 24.1 75.3 32 6.6 43.8 0
13:26 1017 30.03 846 24.98 24.2 75.5 30 5.9 42.6 0
13:27 1017 30.03 846 24.98 24.2 75.5 38 9.3 48.8 0
13:28 1017 30.03 846 24.98 24.1 75.3 30 5.7 42.3 0
13:29 1017 30.03 846 24.98 24.1 75.3 37 8.8 47.8 0
13:30 1017 30.03 846 24.98 24.1 75.4 38 9.2 48.6 0
13:31 1017 30.03 846 24.98 24.2 75.6 29 5.1 41.2 0
13:32 1017 30.03 846 24.98 24.3 75.7 35 8 46.4 0
13:33 1017 30.03 846 24.98 24.3 75.7 35 8.2 46.8 0
13:34 1017 30.03 846 24.98 24.3 75.7 31 6.2 43.2 0
13:35 1017 30.03 846 24.98 24.3 75.8 29 5.3 41.6 0
13:36 1017 30.03 846 24.98 24.2 75.6 27 4.2 39.5 0
13:37 1017 30.03 846 24.98 24.1 75.4 28 4.5 40.2 0
13:38 1017 30.03 846 24.98 24.2 75.5 32 6.9 44.3 0
13:39 1017 30.03 846 24.98 24.2 75.6 31 6.2 43.1 0
13:40 1017 30.03 846 24.98 24.2 75.6 29 5.1 41.2 0
13:41 1017 30.03 846 24.98 24.2 75.6 29 5.1 41.1 0
13:42 1017 30.03 846 24.98 24.2 75.6 28 4.8 40.7 0
13:43 1017 30.03 846 24.98 24.2 75.6 29 5.3 41.6 0
13:44 1017 30.03 846 24.98 24.4 75.8 30 6 42.8 0
13:45 1017 30.03 846 24.98 24.4 76 32 6.8 44.3 0
13:46 1017 30.03 846 24.98 24.4 76 36 8.5 47.3 0
13:47 1017 30.03 846 24.98 24.5 76.1 32 7.1 44.7 0
13:48 1017 30.03 846 24.98 24.4 76 27 4.7 40.4 0
13:49 1017 30.03 846 24.98 24.4 75.8 29 5.6 42.1 0
13:50 1017 30.03 846 24.98 24.4 75.9 30 5.9 42.6 0
13:51 1017 30.03 846 24.98 24.4 75.9 31 6.2 43.2 0
13:52 1017 30.03 846 24.98 24.5 76 33 7.2 45 0
13:53 1017 30.03 846 24.98 24.5 76.1 33 7.3 45.2 0
13:54 1017 30.03 846 24.98 24.5 76.2 36 8.9 48 0
13:55 1017 30.03 846 24.98 24.5 76.1 35 8.4 47 0
13:56 1017 30.03 846 24.98 24.5 76.1 32 6.8 44.3 0
13:57 1017 30.03 846 24.98 24.6 76.3 29 5.5 41.9 0
13:58 1017 30.03 846 24.98 24.7 76.4 32 7 44.6 0
13:59 1017 30.03 846 24.98 24.7 76.4 32 6.9 44.5 0
14:00 1017 30.03 846 24.98 24.6 76.3 29 5.4 41.7 0
14:01 1017 30.03 846 24.98 24.6 76.3 42 11 51.8 0
14:02 1017 30.03 846 24.98 24.8 76.6 29 5.9 42.6 0
14:03 1017 30.03 846 24.98 24.8 76.7 30 6.1 43 0
14:04 1016 30 846 24.98 24.8 76.6 29 5.7 42.3 0
14:05 1016 30 846 24.98 24.8 76.7 28 5.2 41.3 0
14:06 1016 30 846 24.98 24.8 76.7 27 4.7 40.4 0
14:07 1016 30 846 24.98 24.9 76.7 30 6.4 43.6 0
14:08 1016 30 846 24.98 24.9 76.8 30 6.2 43.2 0
14:09 1016 30 846 24.98 24.9 76.8 33 7.5 45.6 0
14:10 1016 30 846 24.98 24.9 76.7 37 9.4 48.9 0
14:11 1016 30 846 24.98 24.8 76.7 32 7.4 45.3 0
14:12 1016 30 846 24.98 24.8 76.7 33 7.8 46 0
14:13 1016 30 846 24.98 24.9 76.7 28 5.3 41.6 0
14:14 1016 30 846 24.98 24.9 76.7 32 7.2 44.9 0
14:15 1016 30 846 24.98 24.9 76.8 35 8.6 47.5 0
14:16 1016 30 846 24.98 25 77 31 7.2 44.9 0
14:17 1016 30 846 24.98 25.1 77.1 30 6.4 43.6 0
14:18 1016 30 846 24.98 25 77.1 34 8.5 47.2 0
14:19 1016 30 846 24.98 25.1 77.2 27 5.3 41.5 0
14:20 1016 30 846 24.98 25.1 77.1 34 8.5 47.3 0
14:21 1016 30 846 24.98 25.1 77.2 28 5.7 42.3 0
14:22 1016 30 846 24.98 25.1 77.2 31 7.2 45 0
14:23 1016 30 846 24.98 25.1 77.2 36 9.1 48.5 0
14:24 1016 30 846 24.98 25.3 77.5 34 8.5 47.4 0
14:25 1016 30 846 24.98 25.2 77.3 30 6.4 43.6 0
14:26 1016 30 846 24.98 25 77 31 6.8 44.2 0
14:27 1016 30 845 24.95 24.9 76.9 31 7 44.6 0
14:28 1016 30 845 24.95 24.9 76.8 29 6.1 43 0
14:29 1016 30 845 24.95 24.9 76.9 33 7.9 46.2 0
14:30 1016 30 845 24.95 25.1 77.1 28 5.5 42 0
14:31 1016 30 845 24.95 25.1 77.3 37 9.6 49.4 0
14:32 1016 30 846 24.98 25.2 77.3 34 8.4 47.1 0
14:33 1016 30 846 24.98 25.1 77.2 28 5.4 41.7 0
14:34 1016 30 846 24.98 24.9 76.9 31 7.1 44.8 0
14:35 1016 30 846 24.98 24.9 76.9 31 6.9 44.4 0
14:36 1016 30 845 24.95 24.9 76.8 31 7 44.7 0
14:37 1016 30 845 24.95 25 77 34 8.2 46.8 0
14:38 1016 30 845 24.95 25.1 77.2 30 6.7 44 0
14:39 1016 30 845 24.95 25.2 77.4 38 10 50 0
14:40 1016 30 845 24.95 25.1 77.3 32 7.5 45.5 0
14:41 1016 30 845 24.95 25.2 77.3 28 5.8 42.5 0
14:42 1016 30 845 24.95 25.2 77.4 32 7.4 45.4 0
14:43 1016 30 845 24.95 25.2 77.4 34 8.6 47.5 0
14:44 1016 30 845 24.95 25.2 77.4 31 7.2 45 0
14:45 1016 30 845 24.95 25.2 77.4 34 8.6 47.5 0
14:46 1016 30 845 24.95 25.2 77.3 28 5.9 42.5 0
14:47 1016 30 845 24.95 25.2 77.3 33 7.9 46.2 0
14:48 1016 30 845 24.95 25.1 77.2 32 7.6 45.7 0
14:49 1016 30 845 24.95 25.1 77.2 28 5.8 42.4 0
14:50 1016 30 845 24.95 25.2 77.3 31 7.3 45.1 0
14:51 1016 30 845 24.95 25.2 77.3 33 8.1 46.6 0
14:52 1016 30 845 24.95 25.2 77.4 28 5.9 42.6 0
14:53 1016 30 845 24.95 25.1 77.3 32 7.7 45.8 0
14:54 1016 30 845 24.95 25.2 77.3 30 6.6 43.9 0
14:55 1016 30 845 24.95 25.2 77.3 27 5.3 41.6 0
14:56 1016 30 845 24.95 25.2 77.4 37 9.7 49.4 0
14:57 1016 30 845 24.95 25.3 77.6 28 5.6 42 0
14:58 1016 30 845 24.95 25.4 77.7 30 6.6 43.8 0
14:59 1016 30 845 24.95 25.3 77.5 27 5 41 0
15:00 1016 30 845 24.95 25.3 77.5 31 7.3 45.2 0
15:01 1016 30 845 24.95 25.3 77.6 32 7.9 46.2 0
15:02 1016 30 845 24.95 25.3 77.5 34 8.6 47.5 0
15:03 1016 30 845 24.95 25.3 77.6 29 6.4 43.5 0
15:04 1016 30 845 24.95 25.3 77.5 30 6.5 43.7 0
15:05 1016 30 845 24.95 25.3 77.6 32 7.5 45.6 0
15:06 1016 30 845 24.95 25.3 77.6 30 6.6 43.9 0
15:07 1016 30 845 24.95 25.3 77.6 28 6 42.8 0
15:08 1016 30 845 24.95 25.3 77.5 30 6.7 44.1 0
15:09 1016 30 845 24.95 25.2 77.3 33 7.9 46.1 0
15:10 1016 30 845 24.95 25.3 77.5 31 7.2 44.9 0
15:11 1016 30 845 24.95 25.3 77.5 32 7.6 45.8 0
15:12 1016 30 845 24.95 25.4 77.7 30 6.9 44.5 0
15:13 1016 30 845 24.95 25.4 77.8 29 6.3 43.4 0
15:14 1016 30 845 24.95 25.5 77.9 28 5.7 42.3 0
15:15 1016 30 845 24.95 25.5 77.9 29 6.4 43.5 0
15:16 1016 30 845 24.95 25.4 77.7 29 6.2 43.1 0
15:17 1016 30 845 24.95 25.1 77.3 29 6 42.8 0
15:18 1016 30 845 24.95 25 77 34 8.3 47 0
15:19 1016 30 845 24.95 25.1 77.1 32 7.7 45.8 0
15:20 1016 30 845 24.95 25.2 77.3 31 7 44.7 0
15:21 1016 30 845 24.95 25.2 77.4 32 7.6 45.6 0
15:22 1016 30 845 24.95 25.3 77.5 33 7.9 46.3 0
15:23 1016 30 845 24.95 25.4 77.7 27 5.4 41.8 0
15:24 1016 30 845 24.95 25.4 77.7 31 7.3 45.1 0
15:25 1016 30 845 24.95 25.5 77.9 31 7.2 45 0
15:26 1016 30 845 24.95 25.6 78 32 8 46.4 0
15:27 1016 30 845 24.95 25.7 78.2 35 9.3 48.7 0
15:28 1016 30 845 24.95 25.7 78.2 30 6.9 44.5 0
15:29 1016 30 845 24.95 25.6 78.1 32 8.1 46.5 0
15:30 1016 30 845 24.95 25.7 78.2 33 8.6 47.4 0
15:31 1016 30 845 24.95 25.9 78.6 28 6.4 43.6 0
15:32 1016 30 845 24.95 25.9 78.7 30 7.1 44.7 0
15:33 1016 30 845 24.95 26 78.7 31 7.6 45.6 0
15:34 1016 30 845 24.95 26 78.8 31 7.8 46 0
15:35 1016 30 845 24.95 26 78.8 32 8.5 47.3 0
15:36 1016 30 845 24.95 26 78.7 35 9.7 49.4 0
15:37 1016 30 845 24.95 26 78.7 31 7.6 45.6 0
15:38 1016 30 845 24.95 25.9 78.5 31 7.7 45.9 0
15:39 1016 30 845 24.95 25.7 78.3 29 6.7 44 0
15:40 1016 30 845 24.95 25.6 78.1 29 6.8 44.2 0
15:41 1016 30 845 24.95 25.6 78.1 31 7.3 45.1 0
15:42 1016 30 845 24.95 25.6 78.1 31 7.3 45.1 0
15:43 1016 30 845 24.95 25.7 78.2 27 5.4 41.7 0
15:44 1016 30 845 24.95 25.6 78.1 30 7.2 44.9 0
15:45 1016 30 845 24.95 25.6 78 30 7.1 44.8 0
15:46 1016 30 845 24.95 25.5 77.9 30 7.1 44.7 0
15:47 1016 30 845 24.95 25.5 77.9 31 7.4 45.3 0
15:48 1016 30 845 24.95 25.6 78 30 6.9 44.4 0
15:49 1016 30 845 24.95 25.7 78.3 26 5 40.9 0
15:50 1016 30 845 24.95 25.8 78.5 31 7.5 45.5 0
15:51 1016 30 845 24.95 25.9 78.5 28 6.1 43 0
15:52 1016 30 845 24.95 25.8 78.4 33 8.6 47.5 0
15:53 1016 30 845 24.95 25.7 78.3 29 6.6 43.9 0
15:54 1016 30 845 24.95 25.6 78 30 6.7 44.1 0
15:55 1016 30 845 24.95 25.4 77.8 29 6.5 43.6 0
15:56 1016 30 845 24.95 25.4 77.7 34 8.6 47.6 0
15:57 1016 30 845 24.95 25.4 77.7 31 7.1 44.8 0
15:58 1016 30 845 24.95 25.5 77.9 29 6.7 44 0
15:59 1016 30 845 24.95 25.6 78.1 30 7.2 44.9 0
16:00 1016 30 845 24.95 25.6 78.1 29 6.3 43.4 0
16:01 1016 30 845 24.95 25.6 78.1 27 5.6 42 0
16:02 1016 30 845 24.95 25.6 78.1 26 5 41 0
16:03 1016 30 845 24.95 25.6 78 29 6.2 43.2 0
16:04 1016 30 845 24.95 25.6 78.1 26 5.1 41.1 0
16:05 1016 30 845 24.95 25.6 78 29 6.3 43.3 0
16:06 1016 30 845 24.95 25.5 78 28 6.1 43.1 0
16:07 1016 30 845 24.95 25.4 77.8 30 6.8 44.3 0
16:08 1016 30 845 24.95 25.3 77.6 32 7.6 45.7 0
16:09 1016 30 845 24.95 25.4 77.7 32 7.9 46.2 0
16:10 1016 30 845 24.95 25.4 77.7 32 7.9 46.3 0
16:11 1016 30 845 24.95 25.2 77.4 32 7.4 45.4 0
16:12 1016 30 845 24.95 25.2 77.3 31 7 44.6 0
16:13 1016 30 845 24.95 25.2 77.4 27 5.2 41.3 0
16:14 1016 30 845 24.95 25.3 77.5 30 6.6 43.8 0
16:15 1016 30 845 24.95 25.3 77.6 30 6.7 44 0
16:16 1016 30 845 24.95 25.4 77.8 31 7.4 45.4 0
16:17 1016 30 845 24.95 25.5 77.9 29 6.6 43.9 0
16:18 1016 30 845 24.95 25.5 77.9 32 8.1 46.5 0
16:19 1016 30 845 24.95 25.6 78 33 8.5 47.3 0
16:20 1016 30 845 24.95 25.6 78.1 33 8.5 47.3 0
16:21 1016 30 845 24.95 25.6 78.1 26 4.9 40.8 0
16:22 1016 30 845 24.95 25.5 78 28 5.9 42.5 0
16:23 1016 30 845 24.95 25.4 77.8 26 4.8 40.7 0
16:24 1016 30 845 24.95 25.3 77.6 28 5.9 42.7 0
16:25 1016 30 845 24.95 25.4 77.7 27 5.2 41.3 0
16:26 1016 30 845 24.95 25.3 77.6 27 5.5 41.8 0
16:27 1016 30 845 24.95 25.3 77.6 32 7.9 46.2 0
16:28 1016 30 845 24.95 25.4 77.7 27 5.5 41.9 0
16:29 1016 30 845 24.95 25.4 77.8 25 4.4 39.8 0
16:30 1016 30 845 24.95 25.4 77.8 31 7.4 45.3 0
16:31 1016 30 845 24.95 25.5 78 25 4.6 40.3 0
16:32 1016 30 845 24.95 25.6 78.2 28 5.9 42.7 0
16:33 1016 30 845 24.95 25.8 78.4 33 8.4 47.1 0
16:34 1016 30 845 24.95 25.7 78.3 28 6 42.8 0
16:35 1016 30 845 24.95 25.7 78.2 27 5.6 42 0
16:36 1016 30 845 24.95 25.6 78.1 27 5.2 41.4 0
16:37 1016 30 845 24.95 25.5 78 26 5.1 41.1 0
16:38 1016 30 845 24.95 25.5 77.9 27 5.1 41.2 0
16:39 1016 30 845 24.95 25.5 77.9 32 7.9 46.3 0
16:40 1016 30 845 24.95 25.6 78.2 32 7.9 46.3 0
16:41 1016 30 845 24.95 25.8 78.4 35 9.3 48.7 0
16:42 1016 30 845 24.95 25.8 78.4 29 6.6 43.9 0
16:43 1016 30 845 24.95 25.8 78.4 29 6.4 43.6 0
16:44 1016 30 845 24.95 25.8 78.4 27 5.9 42.6 0
16:45 1016 30 845 24.95 25.7 78.3 32 8.1 46.5 0
16:46 1016 30 845 24.95 25.6 78.2 30 6.8 44.3 0
16:47 1016 30 845 24.95 25.5 78 27 5.7 42.2 0
16:48 1016 30 845 24.95 25.5 77.9 25 4.2 39.5 0
16:49 1016 30 845 24.95 25.4 77.7 31 7.1 44.9 0
16:50 1016 30 845 24.95 25.4 77.7 28 6 42.8 0
16:51 1016 30 845 24.95 25.4 77.7 28 5.6 42.1 0
16:52 1016 30 845 24.95 25.5 77.9 28 5.8 42.5 0
16:53 1016 30 845 24.95 25.4 77.7 28 5.8 42.4 0
16:54 1016 30 845 24.95 25.3 77.5 28 5.9 42.6 0
16:55 1016 30 845 24.95 25.3 77.5 30 6.9 44.4 0
16:56 1016 30 845 24.95 25.1 77.2 27 5.3 41.5 0
16:57 1016 30 845 24.95 25 76.9 31 7 44.7 0
16:58 1016 30 845 24.95 24.9 76.9 31 7 44.5 0
16:59 1016 30 845 24.95 25 77 32 7.3 45.2 0
17:00 1016 30 845 24.95 25.1 77.2 32 7.3 45.1 0
17:01 1016 30 845 24.95 25.2 77.4 34 8.4 47.1 0
17:02 1016 30 845 24.95 25.3 77.6 30 6.5 43.8 0
17:03 1016 30 845 24.95 25.4 77.7 30 6.6 43.9 0
17:04 1016 30 845 24.95 25.4 77.7 29 6.2 43.1 0
17:05 1016 30 845 24.95 25.5 77.9 30 6.9 44.4 0
17:06 1016 30 845 24.95 25.6 78 29 6.3 43.3 0
17:07 1016 30 845 24.95 25.7 78.2 31 7.3 45.2 0
17:08 1016 30 845 24.95 25.7 78.3 30 7.1 44.8 0
17:09 1016 30 845 24.95 25.7 78.3 31 7.8 46 0
17:10 1016 30 845 24.95 25.6 78.1 32 7.9 46.2 0
17:11 1016 30 845 24.95 25.2 77.3 29 6 42.8 0
17:12 1016 30 845 24.95 24.9 76.7 28 5.6 42 0
17:13 1016 30 845 24.95 24.6 76.2 31 6.4 43.5 0
17:14 1016 30 845 24.95 24.4 75.8 32 6.7 44.1 0
17:15 1016 30 845 24.95 24.2 75.5 29 5.4 41.6 0
17:16 1016 30 845 24.95 24.2 75.5 29 5.5 41.8 0
17:17 1016 30 845 24.95 24.1 75.4 30 5.6 42.1 0
17:18 1016 30 845 24.95 24 75.2 34 7.6 45.7 0
17:19 1016 30 845 24.95 23.8 74.8 32 6.5 43.8 0
17:20 1016 30 845 24.95 23.7 74.6 30 5.3 41.6 0
17:21 1016 30 845 24.95 23.6 74.5 31 5.6 42.1 0
17:22 1016 30 845 24.95 23.6 74.5 34 7.1 44.7 0
17:23 1016 30 845 24.95 23.6 74.5 34 7.2 45 0
17:24 1016 30 845 24.95 23.7 74.7 36 7.9 46.3 0
17:25 1016 30 845 24.95 23.8 74.8 39 9.2 48.6 0
17:26 1016 30 845 24.95 23.9 75 36 8.1 46.6 0
17:27 1016 30 845 24.95 24 75.2 39 9.5 49 0
17:28 1016 30 845 24.95 24 75.3 34 7.5 45.6 0
17:29 1016 30 845 24.95 24.1 75.3 35 7.9 46.3 0
17:30 1016 30 845 24.95 23.9 75.1 34 7.5 45.5 0
17:31 1016 30 845 24.95 23.8 74.9 35 7.7 45.9 0
17:32 1016 30 845 24.95 23.7 74.6 31 5.9 42.6 0
17:33 1016 30 845 24.95 23.4 74.2 31 5.8 42.4 0
17:34 1016 30 845 24.95 23.2 73.8 32 6 42.7 0
17:35 1016 30 845 24.95 23.1 73.5 33 6.1 43 0
17:36 1016 30 845 24.95 23 73.4 33 6.2 43.1 0
17:37 1016 30 845 24.95 23 73.3 37 7.7 45.9 0
17:38 1016 30 845 24.95 22.9 73.2 36 7.2 45 0
17:39 1016 30 845 24.95 22.8 73.1 34 6.4 43.6 0
17:40 1016 30 845 24.95 22.8 73 36 7.2 45 0
17:41 1016 30 845 24.95 22.7 72.8 32 5.3 41.6 0
17:42 1016 30 845 24.95 22.8 73 33 5.9 42.7 0
17:43 1016 30 845 24.95 22.8 73.1 34 6.4 43.5 0
17:44 1016 30 845 24.95 22.8 73.1 34 6.5 43.8 0
17:45 1016 30 845 24.95 22.8 73.1 33 5.8 42.5 0
17:46 1016 30 845 24.95 22.8 73.1 34 6.2 43.1 0
17:47 1016 30 845 24.95 22.9 73.2 33 5.8 42.4 0
17:48 1016 30 845 24.95 22.9 73.3 35 6.9 44.4 0
17:49 1016 30 845 24.95 22.9 73.3 33 6.1 42.9 0
17:50 1016 30 845 24.95 22.9 73.2 33 6.2 43.1 0
17:51 1016 30 845 24.95 22.9 73.2 33 6 42.7 0
17:52 1016 30 845 24.95 22.9 73.2 33 6.2 43.1 0
17:53 1016 30 845 24.95 23 73.3 32 5.7 42.2 0
17:54 1016 30 845 24.95 23 73.4 34 6.6 43.9 0
17:55 1016 30 845 24.95 23 73.5 34 6.5 43.7 0
17:56 1016 30 845 24.95 23 73.4 33 6.1 43 0
17:57 1016 30 845 24.95 23 73.4 33 6.1 42.9 0
17:58 1016 30 845 24.95 23 73.4 32 5.6 42.1 0
17:59 1016 30 845 24.95 23 73.4 32 5.6 42.1 0
18:00 1016 30 845 24.95 23.1 73.5 30 4.8 40.6 0
18:01 1016 30 845 24.95 23.2 73.7 34 6.6 43.9 0
18:02 1016 30 845 24.95 23.2 73.8 38 8.2 46.8 0
18:03 1016 30 845 24.95 23.2 73.8 33 6.2 43.2 0
18:04 1016 30 845 24.95 23.2 73.7 34 6.6 43.9 0
18:05 1016 30 845 24.95 23.2 73.7 40 9 48.3 0
18:06 1016 30 845 24.95 23.1 73.6 36 7.3 45.2 0
18:07 1016 30 845 24.95 23.1 73.6 34 6.4 43.5 0
18:08 1016 30 845 24.95 23.1 73.6 34 6.6 43.9 0
18:09 1016 30 845 24.95 23.1 73.5 36 7.3 45.1 0
18:10 1016 30 845 24.95 23.1 73.6 36 7.4 45.3 0
18:11 1016 30 845 24.95 23 73.3 39 8.3 47 0
18:12 1016 30 845 24.95 22.9 73.1 34 6.3 43.3 0
18:13 1016 30 845 24.95 22.9 73.2 32 5.6 42.2 0
18:14 1016 30 845 24.95 22.9 73.3 34 6.4 43.6 0
18:15 1016 30 845 24.95 23 73.5 34 6.4 43.4 0
18:16 1016 30 845 24.95 23.1 73.7 34 6.6 43.9 0
18:17 1016 30 845 24.95 23.3 73.9 33 6.5 43.7 0
18:18 1016 30 845 24.95 23.4 74.1 37 8 46.4 0
18:19 1016 30 845 24.95 23.5 74.2 41 9.6 49.3 0
18:20 1016 30 845 24.95 23.5 74.2 45 11.2 52.1 0
18:21 1016 30 845 24.95 23.4 74.2 49 12.3 54.2 0
18:22 1016 30 845 24.95 23.4 74.1 45 11.1 51.9 0
18:23 1016 30 845 24.95 23.5 74.3 41 9.6 49.3 0
18:24 1016 30 845 24.95 23.6 74.6 44 11 51.8 0
18:25 1016 30 845 24.95 23.8 74.8 38 8.7 47.7 0
18:26 1016 30 845 24.95 23.8 74.9 39 9.1 48.5 0
18:27 1016 30 845 24.95 23.8 74.9 37 8.7 47.6 0
18:28 1016 30 845 24.95 23.9 74.9 33 6.8 44.3 0
18:29 1016 30 845 24.95 23.8 74.9 31 5.8 42.4 0
18:30 1016 30 845 24.95 23.8 74.8 37 8.5 47.3 0
18:31 1016 30 845 24.95 23.6 74.5 37 8.5 47.3 0
18:32 1016 30 845 24.95 23.5 74.3 36 8 46.3 0
18:33 1016 30 845 24.95 23.4 74.1 38 8.3 47 0
18:34 1016 30 845 24.95 23.3 74 41 9.3 48.8 0
18:35 1016 30 845 24.95 23.1 73.7 41 9.2 48.5 0
18:36 1016 30 845 24.95 22.9 73.2 40 8.8 47.8 0
18:37 1016 30 845 24.95 22.7 72.9 32 5.3 41.5 0
18:38 1016 30 846 24.98 22.7 72.9 30 4.4 40 0
18:39 1016 30 846 24.98 22.9 73.1 33 5.8 42.4 0
18:40 1016 30 846 24.98 22.9 73.3 31 5.3 41.5 0
18:41 1016 30 846 24.98 22.9 73.2 33 6.2 43.1 0
18:42 1016 30 846 24.98 22.8 73 34 6.4 43.6 0
18:43 1016 30 846 24.98 22.7 72.8 33 5.7 42.3 0
18:44 1016 30 846 24.98 22.6 72.6 35 6.5 43.7 0
18:45 1016 30 846 24.98 22.5 72.4 33 5.5 41.9 0
18:46 1016 30 846 24.98 22.5 72.5 33 5.7 42.2 0
18:47 1016 30 846 24.98 22.4 72.4 35 6.3 43.3 0
18:48 1016 30 846 24.98 22.5 72.4 36 6.9 44.3 0
18:49 1016 30 846 24.98 22.4 72.4 36 6.9 44.5 0
18:50 1016 30 846 24.98 22.3 72.2 37 6.9 44.5 0
18:51 1016 30 846 24.98 22.3 72.1 33 5.6 42.1 0
18:52 1016 30 846 24.98 22.3 72.1 33 5.3 41.6 0
18:53 1016 30 846 24.98 22.4 72.3 33 5.4 41.7 0
18:54 1016 30 846 24.98 22.4 72.4 32 5.2 41.3 0
18:55 1016 30 846 24.98 22.4 72.3 33 5.5 41.9 0
18:56 1016 30 846 24.98 22.4 72.3 31 4.7 40.4 0
18:57 1016 30 846 24.98 22.4 72.4 34 5.9 42.7 0
18:58 1016 30 846 24.98 22.3 72.2 35 6.4 43.5 0
18:59 1016 30 846 24.98 22.3 72.1 35 6.1 42.9 0
19:00 1016 30 846 24.98 22.2 71.9 35 6.3 43.3 0
19:01 1016 30 846 24.98 22.1 71.7 37 7 44.7 0
19:02 1016 30 846 24.98 22 71.6 32 4.8 40.6 0
19:03 1016 30 846 24.98 22 71.7 30 3.8 38.9 0
19:04 1016 30 846 24.98 22.2 72 31 4.7 40.5 0
19:05 1016 30 846 24.98 22.3 72.1 32 5.2 41.3 0
19:06 1016 30 846 24.98 22.2 72 31 4.6 40.3 0
19:07 1017 30.03 846 24.98 22.2 71.9 32 4.7 40.5 0
19:08 1017 30.03 846 24.98 22.1 71.8 33 5.2 41.4 0
19:09 1017 30.03 846 24.98 22 71.7 32 4.8 40.7 0
19:10 1017 30.03 846 24.98 22 71.7 33 5.3 41.5 0
19:11 1017 30.03 846 24.98 22 71.7 30 3.6 38.5 0
19:12 1017 30.03 846 24.98 22.2 71.9 30 4.1 39.4 0
19:13 1017 30.03 846 24.98 22.2 72 31 4.6 40.4 0
19:14 1017 30.03 846 24.98 22.2 71.9 33 5.4 41.8 0
19:15 1017 30.03 846 24.98 22 71.5 33 5 40.9 0
19:16 1017 30.03 846 24.98 21.9 71.3 34 5.6 42 0
19:17 1017 30.03 846 24.98 21.8 71.2 35 5.8 42.4 0
19:18 1017 30.03 846 24.98 21.6 71 34 5.2 41.3 0
19:19 1017 30.03 846 24.98 21.6 70.8 33 4.9 40.9 0
19:20 1017 30.03 846 24.98 21.5 70.8 31 3.9 39.1 0
19:21 1017 30.03 846 24.98 21.6 70.9 32 4.5 40.1 0
19:22 1017 30.03 846 24.98 21.7 71.1 32 4.4 39.8 0
19:23 1017 30.03 846 24.98 21.9 71.4 32 4.8 40.7 0
19:24 1017 30.03 846 24.98 22 71.6 33 5.3 41.6 0
19:25 1017 30.03 846 24.98 22 71.7 33 5.1 41.2 0
19:26 1017 30.03 846 24.98 22.1 71.7 31 4.2 39.5 0
19:27 1017 30.03 846 24.98 22.1 71.7 31 4.4 40 0
19:28 1017 30.03 846 24.98 22.1 71.7 31 4.2 39.6 0
19:29 1017 30.03 846 24.98 22.1 71.7 30 4.1 39.4 0
19:30 1017 30.03 846 24.98 21.9 71.5 32 4.9 40.8 0
19:31 1017 30.03 846 24.98 21.9 71.3 29 3.1 37.6 0
19:32 1017 30.03 846 24.98 21.9 71.4 30 3.5 38.3 0
19:33 1017 30.03 846 24.98 21.9 71.4 31 4.1 39.5 0
19:34 1017 30.03 846 24.98 21.8 71.3 31 4.3 39.7 0
19:35 1017 30.03 846 24.98 21.8 71.2 30 3.8 38.9 0
19:36 1017 30.03 846 24.98 21.7 71.1 29 3.2 37.8 0
19:37 1017 30.03 846 24.98 21.7 71.1 29 3.1 37.5 0
19:38 1017 30.03 846 24.98 21.8 71.2 30 3.6 38.5 0
19:39 1017 30.03 846 24.98 21.7 71.1 30 3.7 38.7 0
19:40 1017 30.03 846 24.98 21.6 70.9 32 4.2 39.6 0
19:41 1017 30.03 846 24.98 21.4 70.6 31 3.9 39.1 0
19:42 1017 30.03 846 24.98 21.4 70.5 30 3.2 37.7 0
19:43 1017 30.03 846 24.98 21.5 70.6 29 2.9 37.3 0
19:44 1017 30.03 846 24.98 21.6 70.9 30 3.3 37.9 0
19:45 1017 30.03 846 24.98 21.6 71 32 4.2 39.6 0
19:46 1017 30.03 846 24.98 21.6 70.9 30 3.5 38.3 0
19:47 1017 30.03 846 24.98 21.6 71 30 3.6 38.4 0
19:48 1017 30.03 846 24.98 21.6 71 29 3.1 37.6 0
19:49 1017 30.03 846 24.98 21.7 71 30 3.6 38.5 0
19:50 1017 30.03 846 24.98 21.7 71 28 2.4 36.3 0
19:51 1017 30.03 846 24.98 21.7 71.1 28 2.7 36.8 0
19:52 1017 30.03 846 24.98 21.8 71.2 29 3 37.5 0
19:53 1017 30.03 846 24.98 21.8 71.3 30 3.4 38.2 0
19:54 1017 30.03 846 24.98 21.8 71.2 30 3.8 38.8 0
19:55 1017 30.03 846 24.98 21.7 71 28 2.7 36.8 0
19:56 1017 30.03 846 24.98 21.6 70.8 29 2.9 37.2 0
19:57 1017 30.03 846 24.98 21.5 70.6 31 3.7 38.6 0
19:58 1017 30.03 846 24.98 21.4 70.4 29 2.6 36.7 0
19:59 1017 30.03 846 24.98 21.3 70.4 30 3.1 37.5 0
20:00 1017 30.03 847 25.01 21.2 70.2 30 3.3 38 0
20:01 1017 30.03 847 25.01 21.1 70 30 3.2 37.8 0
20:02 1017 30.03 847 25.01 21 69.9 31 3.6 38.5 0
20:03 1017 30.03 847 25.01 21 69.7 32 3.8 38.8 0
20:04 1017 30.03 847 25.01 20.9 69.5 31 3.4 38 0
20:05 1017 30.03 847 25.01 20.8 69.4 31 3.3 37.9 0
20:06 1017 30.03 847 25.01 20.7 69.3 29 2.5 36.4 0
20:07 1017 30.03 847 25.01 20.7 69.3 30 2.6 36.7 0
20:08 1018 30.06 847 25.01 20.7 69.3 31 3.1 37.5 0
20:09 1018 30.06 847 25.01 20.7 69.2 30 2.9 37.2 0
20:10 1018 30.06 847 25.01 20.6 69.1 31 3 37.5 0
20:11 1018 30.06 847 25.01 20.6 69 30 2.6 36.6 0
20:12 1018 30.06 847 25.01 20.5 68.9 29 2.2 35.9 0
20:13 1018 30.06 847 25.01 20.5 68.9 30 2.7 36.9 0
20:14 1018 30.06 847 25.01 20.3 68.6 30 2.4 36.4 0
20:15 1018 30.06 847 25.01 20.3 68.5 30 2.2 35.9 0
20:16 1018 30.06 847 25.01 20.2 68.3 30 2.1 35.8 0
20:17 1018 30.06 847 25.01 20.1 68.2 30 2.3 36.2 0
20:18 1018 30.06 847 25.01 20 68 30 2 35.7 0
20:19 1018 30.06 847 25.01 20 67.9 30 2.1 35.9 0
20:20 1018 30.06 847 25.01 19.9 67.8 29 1.7 35 0
20:21 1018 30.06 847 25.01 19.9 67.8 30 1.8 35.2 0
20:22 1018 30.06 847 25.01 19.8 67.6 30 1.9 35.5 0
20:23 1018 30.06 847 25.01 19.7 67.5 30 1.9 35.5 0
20:24 1018 30.06 847 25.01 19.6 67.3 31 2 35.7 0
20:25 1018 30.06 847 25.01 19.5 67.1 30 1.5 34.7 0
20:26 1018 30.06 847 25.01 19.4 67 31 1.8 35.3 0
20:27 1018 30.06 847 25.01 19.3 66.8 32 2.4 36.3 0
20:28 1018 30.06 847 25.01 19.2 66.6 31 1.6 34.9 0
20:29 1018 30.06 847 25.01 19.1 66.4 31 1.6 34.9 0
20:30 1018 30.06 847 25.01 19.1 66.3 31 1.5 34.7 0
20:31 1018 30.06 847 25.01 19.1 66.3 31 1.7 35.1 0
20:32 1018 30.06 847 25.01 19.1 66.4 30 1.5 34.7 0
20:33 1018 30.06 847 25.01 19.1 66.4 31 1.6 34.8 0
20:34 1018 30.06 847 25.01 19.1 66.3 30 1.5 34.6 0
20:35 1018 30.06 847 25.01 19 66.2 31 1.6 35 0
20:36 1018 30.06 847 25.01 18.9 66 32 2 35.5 0
20:37 1018 30.06 847 25.01 18.8 65.8 32 1.7 35.1 0
20:38 1018 30.06 847 25.01 18.7 65.6 34 2.5 36.4 0
20:39 1018 30.06 847 25.01 18.5 65.3 35 3 37.4 0
20:40 1018 30.06 847 25.01 18.3 65 36 3.2 37.7 0
20:41 1018 30.06 847 25.01 18.2 64.7 36 3.1 37.7 0
20:42 1018 30.06 847 25.01 18 64.3 35 2.2 36 0
20:43 1018 30.06 847 25.01 17.8 64 37 3 37.5 0
20:44 1018 30.06 847 25.01 17.7 63.8 37 2.8 37 0
20:45 1018 30.06 847 25.01 17.5 63.5 38 3.2 37.7 0
20:46 1018 30.06 848 25.04 17.3 63.1 38 3.1 37.6 0
20:47 1018 30.06 848 25.04 17.1 62.8 40 3.3 38 0
20:48 1018 30.06 848 25.04 16.9 62.5 45 4.9 40.9 0
20:49 1018 30.06 848 25.04 16.5 61.7 44 4.3 39.7 0
20:50 1018 30.06 848 25.04 16.3 61.3 44 4.2 39.6 0
20:51 1018 30.06 848 25.04 16.1 61 46 4.4 40 0
20:52 1018 30.06 848 25.04 16 60.7 45 4.3 39.7 0
20:53 1018 30.06 848 25.04 15.8 60.5 45 4 39.2 0
20:54 1018 30.06 848 25.04 15.7 60.2 47 4.4 39.9 0
20:55 1019 30.09 848 25.04 15.5 59.8 47 4.3 39.7 0
20:56 1019 30.09 848 25.04 15.3 59.6 47 4.1 39.4 0
20:57 1019 30.09 848 25.04 15.2 59.3 47 4.1 39.3 0
20:58 1019 30.09 848 25.04 15.1 59.1 49 4.5 40.1 0
20:59 1019 30.09 848 25.04 14.9 58.8 45 3.3 37.9 0
21:00 1019 30.09 848 25.04 14.9 58.8 50 4.6 40.3 0
21:01 1019 30.09 848 25.04 14.7 58.5 49 4.1 39.4 0
21:02 1019 30.09 848 25.04 14.6 58.2 49 4.2 39.5 0
21:03 1019 30.09 848 25.04 14.5 58 50 4.2 39.6 0
21:04 1019 30.09 848 25.04 14.3 57.7 50 4.1 39.4 0
21:05 1019 30.09 848 25.04 14.2 57.6 50 4.1 39.3 0
21:06 1019 30.09 848 25.04 14.1 57.4 51 4.3 39.8 0
21:07 1019 30.09 848 25.04 14 57.2 50 4 39.1 0
21:08 1019 30.09 848 25.04 13.9 57.1 51 4.1 39.4 0
21:09 1019 30.09 848 25.04 13.9 57 52 4.1 39.5 0
21:10 1019 30.09 848 25.04 13.8 56.8 53 4.3 39.8 0
21:11 1019 30.09 848 25.04 13.6 56.5 53 4.3 39.8 0
21:12 1019 30.09 848 25.04 13.5 56.2 53 4.3 39.7 0
21:13 1019 30.09 848 25.04 13.3 56 54 4.3 39.8 0
21:14 1019 30.09 848 25.04 13.2 55.8 54 4.2 39.5 0
21:15 1019 30.09 848 25.04 13.2 55.7 54 4.3 39.7 0
21:16 1019 30.09 848 25.04 13.2 55.7 54 4.1 39.3 0
21:17 1019 30.09 848 25.04 13.2 55.7 53 4 39.1 0
21:18 1019 30.09 848 25.04 13.2 55.7 54 4.1 39.3 0
21:19 1019 30.09 848 25.04 13.1 55.6 54 4 39.3 0
21:20 1019 30.09 848 25.04 13.1 55.5 54 4 39.1 0
21:21 1019 30.09 848 25.04 13 55.4 53 3.8 38.9 0
21:22 1019 30.09 848 25.04 13 55.5 54 4.1 39.4 0
21:23 1019 30.09 848 25.04 13 55.3 54 4 39.3 0
21:24 1019 30.09 848 25.04 12.9 55.2 55 4.2 39.6 0
21:25 1019 30.09 848 25.04 12.8 55 56 4.3 39.8 0
21:26 1019 30.09 848 25.04 12.6 54.7 57 4.3 39.8 0
21:27 1019 30.09 848 25.04 12.5 54.5 57 4.2 39.6 0
21:28 1019 30.09 848 25.04 12.4 54.3 57 4.3 39.7 0
21:29 1019 30.09 849 25.07 12.3 54.2 56 3.9 39.1 0
21:30 1019 30.09 849 25.07 12.3 54.2 57 4.1 39.4 0
21:31 1019 30.09 849 25.07 12.3 54.1 57 4.1 39.4 0
21:32 1019 30.09 849 25.07 12.2 54 57 4.1 39.4 0
21:33 1019 30.09 849 25.07 12.1 53.9 56 3.6 38.5 0
21:34 1019 30.09 849 25.07 12.2 53.9 57 4.1 39.3 0
21:35 1019 30.09 849 25.07 12.2 54 57 3.9 39.1 0
21:36 1019 30.09 849 25.07 12.1 53.9 57 3.9 39 0
21:37 1019 30.09 849 25.07 12.2 53.9 56 3.7 38.6 0
21:38 1019 30.09 849 25.07 12.4 54.2 55 3.6 38.5 0
21:39 1019 30.09 849 25.07 12.3 54.1 56 3.8 38.8 0
21:40 1019 30.09 849 25.07 12.2 53.9 56 3.8 38.8 0
21:41 1019 30.09 849 25.07 12.1 53.7 56 3.7 38.6 0
21:42 1019 30.09 849 25.07 12 53.7 57 3.8 38.8 0
21:43 1020 30.12 849 25.07 12 53.5 59 4.1 39.5 0
21:44 1020 30.12 849 25.07 11.7 53.1 59 4 39.2 0
21:45 1020 30.12 849 25.07 11.7 53 58 3.8 38.8 0
21:46 1020 30.12 849 25.07 11.7 53.1 57 3.6 38.4 0
21:47 1020 30.12 849 25.07 11.7 53.1 57 3.7 38.6 0
21:48 1020 30.12 849 25.07 11.7 53.1 57 3.6 38.4 0
21:49 1020 30.12 849 25.07 11.7 53.1 57 3.7 38.6 0
21:50 1020 30.12 849 25.07 11.7 53.1 57 3.5 38.3 0
21:51 1020 30.12 849 25.07 11.7 53.1 57 3.6 38.6 0
21:52 1020 30.12 849 25.07 11.7 53 57 3.6 38.5 0
21:53 1020 30.12 849 25.07 11.7 53 57 3.5 38.2 0
21:54 1020 30.12 849 25.07 11.7 53.1 56 3.4 38.1 0
21:55 1020 30.12 849 25.07 11.8 53.2 57 3.5 38.4 0
21:56 1020 30.12 849 25.07 11.8 53.2 54 2.9 37.3 0
21:57 1020 30.12 849 25.07 11.8 53.3 56 3.4 38.1 0
21:58 1020 30.12 849 25.07 11.8 53.2 56 3.5 38.3 0
21:59 1020 30.12 849 25.07 11.7 53 56 3.2 37.8 0
22:00 1020 30.12 849 25.07 11.6 53 57 3.6 38.5 0
22:01 1020 30.12 849 25.07 11.6 52.8 58 3.6 38.4 0
22:02 1020 30.12 849 25.07 11.5 52.6 58 3.4 38.2 0
22:03 1020 30.12 849 25.07 11.5 52.7 58 3.6 38.4 0
22:04 1020 30.12 849 25.07 11.4 52.5 58 3.4 38.1 0
22:05 1020 30.12 849 25.07 11.3 52.4 57 3.2 37.8 0
22:06 1020 30.12 849 25.07 11.3 52.4 58 3.5 38.3 0
22:07 1020 30.12 849 25.07 11.2 52.2 57 3.2 37.7 0
22:08 1020 30.12 849 25.07 11.2 52.2 58 3.3 37.9 0
22:09 1020 30.12 849 25.07 11.3 52.3 58 3.3 37.9 0
22:10 1020 30.12 849 25.07 11.3 52.3 58 3.4 38 0
22:11 1020 30.12 849 25.07 11.3 52.3 58 3.3 38 0
22:12 1020 30.12 849 25.07 11.2 52.2 58 3.4 38.1 0
22:13 1020 30.12 849 25.07 11.2 52.2 58 3.3 37.9 0
22:14 1020 30.12 849 25.07 11.2 52.2 58 3.3 38 0
22:15 1020 30.12 849 25.07 11.3 52.3 57 3.2 37.8 0
22:16 1020 30.12 849 25.07 11.2 52.2 58 3.3 37.9 0
22:17 1020 30.12 849 25.07 11.2 52.2 57 3.1 37.5 0
22:18 1020 30.12 849 25.07 11.2 52.1 57 3 37.4 0
22:19 1020 30.12 849 25.07 11.2 52.2 57 3 37.5 0
22:20 1020 30.12 849 25.07 11.2 52.2 57 3.1 37.6 0
22:21 1020 30.12 849 25.07 11.2 52.2 57 3.1 37.5 0
22:22 1020 30.12 849 25.07 11.1 52 57 3 37.4 0
22:23 1020 30.12 849 25.07 11.2 52.2 57 3 37.3 0
22:24 1020 30.12 849 25.07 11.3 52.3 55 2.7 36.8 0
22:25 1020 30.12 849 25.07 11.4 52.5 55 2.7 36.9 0
22:26 1020 30.12 849 25.07 11.5 52.6 55 2.8 37 0
22:27 1020 30.12 849 25.07 11.5 52.7 55 2.7 36.9 0
22:28 1020 30.12 849 25.07 11.5 52.7 54 2.7 36.8 0
22:29 1020 30.12 849 25.07 11.5 52.8 54 2.5 36.5 0
22:30 1020 30.12 849 25.07 11.5 52.8 55 2.8 37.1 0
22:31 1020 30.12 849 25.07 11.5 52.6 56 3 37.5 0
22:32 1020 30.12 849 25.07 11.3 52.4 56 3 37.4 0
22:33 1020 30.12 849 25.07 11.3 52.3 57 3 37.5 0
22:34 1020 30.12 849 25.07 11.2 52.1 56 2.8 37.1 0
22:35 1020 30.12 849 25.07 11 51.9 57 2.9 37.2 0
22:36 1020 30.12 849 25.07 11 51.8 58 3 37.4 0
22:37 1020 30.12 849 25.07 10.9 51.7 56 2.7 36.8 0
22:38 1020 30.12 850 25.1 10.9 51.6 57 2.8 37 0
22:39 1020 30.12 850 25.1 10.8 51.4 57 2.7 36.8 0
22:40 1020 30.12 850 25.1 10.8 51.4 56 2.5 36.5 0
22:41 1020 30.12 850 25.1 10.8 51.5 56 2.5 36.6 0
22:42 1020 30.12 850 25.1 10.9 51.7 55 2.4 36.4 0
22:43 1020 30.12 850 25.1 11 51.7 55 2.3 36.1 0
22:44 1020 30.12 850 25.1 11 51.9 54 2.2 36 0
22:45 1020 30.12 850 25.1 11.1 52 54 2.3 36.1 0
22:46 1020 30.12 850 25.1 11.2 52.1 54 2.3 36.2 0
22:47 1020 30.12 850 25.1 11.1 51.9 56 2.6 36.7 0
22:48 1020 30.12 850 25.1 10.9 51.6 59 3.2 37.7 0
22:49 1020 30.12 850 25.1 10.5 50.8 61 3.3 38 0
22:50 1020 30.12 850 25.1 10 50 64 3.5 38.3 0
22:51 1020 30.12 850 25.1 9.6 49.4 64 3.2 37.7 0
22:52 1021 30.15 850 25.1 9.4 48.9 64 3 37.4 0
22:53 1021 30.15 850 25.1 9.3 48.7 64 2.8 37.1 0
22:54 1021 30.15 850 25.1 9.3 48.7 63 2.6 36.6 0
22:55 1021 30.15 850 25.1 9.4 48.8 61 2.3 36.1 0
22:56 1021 30.15 850 25.1 9.7 49.4 59 2.2 35.9 0
22:57 1021 30.15 850 25.1 10 49.9 58 2.1 35.8 0
22:58 1021 30.15 850 25.1 10.2 50.4 57 2.2 36 0
22:59 1021 30.15 850 25.1 10.3 50.6 58 2.5 36.5 0
23:00 1021 30.15 850 25.1 10.3 50.5 58 2.5 36.4 0
23:01 1021 30.15 850 25.1 10.2 50.4 58 2.5 36.4 0
23:02 1021 30.15 850 25.1 10.2 50.3 59 2.5 36.5 0
23:03 1021 30.15 850 25.1 10.1 50.1 58 2.2 36 0
23:04 1021 30.15 850 25.1 10.1 50.1 58 2.2 36 0
23:05 1021 30.15 850 25.1 10.1 50.1 58 2.3 36.1 0
23:06 1021 30.15 850 25.1 9.9 49.8 59 2.3 36.1 0
23:07 1021 30.15 850 25.1 9.8 49.6 59 2.3 36.2 0
23:08 1021 30.15 850 25.1 9.7 49.4 61 2.6 36.6 0
23:09 1021 30.15 850 25.1 9.6 49.3 61 2.4 36.3 0
23:10 1021 30.15 850 25.1 9.5 49.1 62 2.5 36.5 0
23:11 1021 30.15 850 25.1 9.4 48.8 62 2.5 36.5 0
23:12 1021 30.15 850 25.1 9.4 48.9 62 2.4 36.3 0
23:13 1021 30.15 850 25.1 9.3 48.8 62 2.4 36.2 0
23:14 1021 30.15 850 25.1 9.3 48.7 62 2.5 36.4 0
23:15 1021 30.15 850 25.1 9.2 48.6 62 2.3 36.1 0
23:16 1021 30.15 850 25.1 9.3 48.7 61 2.1 35.8 0
23:17 1021 30.15 850 25.1 9.4 48.9 61 2.2 35.9 0
23:18 1021 30.15 850 25.1 9.5 49.1 61 2.3 36.2 0
23:19 1021 30.15 850 25.1 9.6 49.3 58 1.9 35.4 0
23:20 1021 30.15 850 25.1 9.7 49.5 60 2.3 36.2 0
23:21 1021 30.15 850 25.1 9.7 49.5 58 1.9 35.4 0
23:22 1021 30.15 850 25.1 9.9 49.8 57 1.8 35.3 0
23:23 1021 30.15 850 25.1 10.2 50.3 57 2 35.7 0
23:24 1021 30.15 850 25.1 10.3 50.6 53 1.1 34 0
23:25 1021 30.15 850 25.1 10.7 51.2 51 1.1 33.9 0
23:26 1021 30.15 850 25.1 11 51.9 50 1.2 34.1 0
23:27 1021 30.15 850 25.1 11.2 52.2 51 1.5 34.8 0
23:28 1021 30.15 850 25.1 11.2 52.2 51 1.5 34.7 0
23:29 1021 30.15 850 25.1 11.4 52.5 50 1.4 34.5 0
23:30 1021 30.15 850 25.1 11.5 52.7 52 2 35.7 0
23:31 1021 30.15 850 25.1 11.4 52.5 50 1.3 34.3 0
23:32 1021 30.15 850 25.1 11.5 52.6 52 2 35.6 0
23:33 1021 30.15 850 25.1 11.3 52.4 53 2.1 35.8 0
23:34 1021 30.15 850 25.1 11.3 52.3 52 1.9 35.4 0
23:35 1021 30.15 850 25.1 11.2 52.1 54 2.3 36.2 0
23:36 1021 30.15 850 25.1 11 51.9 54 2.1 35.8 0
23:37 1021 30.15 850 25.1 11 51.7 54 2.1 35.8 0
23:38 1021 30.15 850 25.1 10.9 51.6 54 2 35.6 0
23:39 1021 30.15 850 25.1 10.9 51.6 53 1.8 35.2 0
23:40 1021 30.15 850 25.1 10.9 51.6 54 2.1 35.8 0
23:41 1021 30.15 850 25.1 10.8 51.4 56 2.4 36.4 0
23:42 1021 30.15 850 25.1 10.6 51 57 2.5 36.4 0
23:43 1021 30.15 850 25.1 10.4 50.7 58 2.5 36.5 0
23:44 1021 30.15 850 25.1 10.2 50.3 59 2.6 36.8 0
23:45 1021 30.15 850 25.1 10 49.9 61 2.8 37 0
23:46 1021 30.15 850 25.1 9.8 49.7 61 2.7 36.8 0
23:47 1021 30.15 850 25.1 9.7 49.5 61 2.6 36.7 0
23:48 1021 30.15 850 25.1 9.7 49.4 60 2.4 36.4 0
23:49 1021 30.15 850 25.1 9.7 49.5 60 2.5 36.5 0
23:50 1021 30.15 850 25.1 9.8 49.6 60 2.5 36.5 0
23:51 1021 30.15 850 25.1 9.8 49.6 60 2.4 36.4 0
23:52 1021 30.15 850 25.1 9.8 49.6 60 2.5 36.5 0
23:53 1021 30.15 850 25.1 9.8 49.7 61 2.6 36.6 0
23:54 1021 30.15 850 25.1 9.8 49.7 60 2.5 36.6 0
23:55 1021 30.15 850 25.1 9.8 49.6 60 2.4 36.2 0
23:56 1021 30.15 850 25.1 9.9 49.7 59 2.4 36.2 0
23:57 1021 30.15 850 25.1 9.9 49.8 59 2.3 36.2 0
23:58 1021 30.15 850 25.1 10 50 59 2.4 36.3 0
23:59 1021 30.15 850 25.1 10.1 50.1 58 2.2 35.9 0
24:00 1021 30.15 850 25.1 10.1 50.2 58 2.2 36 0